
Distance (Route):
Temperature : -41.8°C
Humidity : 0.6%
Pressure : 9.5hPa| Receiver | Frames | First received | Last received |
|---|---|---|---|
| KRY50SP | 259 | 2026-08-30 23:43:31 | 2026-08-31 00:14:33 |
| SP4MAZ | 150 | 2026-08-30 23:26:15 | 2026-08-31 00:50:28 |
| SQ9EZE-16 | 65 | 2026-08-31 00:08:19 | 2026-08-31 00:50:38 |
| SQ9EZE-15 | 35 | 2026-08-31 00:08:31 | 2026-08-31 00:50:27 |
| SP3BTT-10 | 4 | 2026-08-31 00:49:25 | 2026-08-31 00:49:58 |
| OE3JTB-15 | 1 | 2026-08-31 00:28:54 | 2026-08-31 00:28:54 |
| SQ9EZE-14 | 1 | 2026-08-31 00:31:19 | 2026-08-31 00:31:19 |
| Receiver | Date | Latitude | Longitude | Direction | Speed | Altitude | Climb | Temperature | Humidity | Pressure | Voltage | Killtimer | Uptime | BKT | XDATA |
|---|---|---|---|---|---|---|---|---|---|---|---|---|---|---|---|
| SQ9EZE-16 | 2026-08-31 00:50:38 | -12.04373 | -77.04687 | 0° | 0km/h | 1757m | 0.0m/s | -41.8°C | 0.6% | 9.5hPa | 2.5V | 00:00:00 | 00:00:00 | 00:00:00 | |
| SP4MAZ | 2026-08-31 00:50:28 | -12.04408 | -77.04567 | 287° | 80km/h | 1622m | 22.5m/s | -42.0°C | 0.6% | 9.6hPa | 2.5V | 00:00:00 | 00:00:00 | 00:00:00 | |
| SQ9EZE-15 | 2026-08-31 00:50:27 | -12.04414 | -77.04547 | 287° | 80km/h | 1599m | 22.5m/s | -42.0°C | 0.6% | 9.6hPa | 2.5V | 00:00:00 | 00:00:00 | 00:00:00 | |
| SQ9EZE-16 | 2026-08-31 00:50:22 | -12.04440 | -77.04397 | 103° | 135km/h | 1489m | 27.1m/s | -42.3°C | 0.6% | 9.6hPa | 2.5V | 00:00:00 | 00:00:00 | 00:00:00 | |
| SP4MAZ | 2026-08-31 00:50:07 | -12.04630 | -77.03890 | 181° | 230km/h | 674m | -11.1m/s | -42.7°C | 0.6% | 9.8hPa | 2.5V | 00:00:00 | 00:00:00 | 00:00:00 | |
| SQ9EZE-15 | 2026-08-31 00:50:07 | -12.04630 | -77.03890 | 181° | 230km/h | 674m | -11.1m/s | -42.7°C | 0.6% | 9.8hPa | 2.5V | 00:00:00 | 00:00:00 | 00:00:00 | |
| SQ9EZE-16 | 2026-08-31 00:50:07 | -12.04630 | -77.03890 | 181° | 230km/h | 674m | -11.1m/s | -42.7°C | 0.6% | 9.8hPa | 2.5V | 00:00:00 | 00:00:00 | 00:00:00 | |
| SP3BTT-10 | 2026-08-31 00:49:58 | -12.04103 | -77.03894 | 184° | 252km/h | 774m | -13.9m/s | -42.8°C | 2.6% | 9.8hPa | 2.5V | 00:00:00 | 00:00:00 | 00:00:00 | |
| SQ9EZE-16 | 2026-08-31 00:49:51 | -12.03673 | -77.03978 | 147° | 299km/h | 874m | -15.1m/s | -42.9°C | 0.6% | 10.0hPa | 2.5V | 00:00:00 | 00:00:00 | 00:00:00 | |
| SP3BTT-10 | 2026-08-31 00:49:47 | -12.03425 | -77.04195 | 146° | 195km/h | 995m | -0.8m/s | -42.9°C | 2.7% | 9.9hPa | 2.5V | 00:00:00 | 00:00:00 | 00:00:00 | |
| SP4MAZ | 2026-08-31 00:49:43 | -12.03271 | -77.04324 | 133° | 188km/h | 990m | 5.2m/s | -43.0°C | 0.6% | 10.1hPa | 2.5V | 00:00:00 | 00:00:00 | 00:00:00 | |
| SP3BTT-10 | 2026-08-31 00:49:39 | -12.03152 | -77.04486 | 120° | 197km/h | 989m | -4.0m/s | -43.0°C | 2.7% | 10.0hPa | 2.5V | 00:00:00 | 00:00:00 | 00:00:00 | |
| SQ9EZE-16 | 2026-08-31 00:49:34 | -12.03051 | -77.04731 | 98° | 193km/h | 1004m | 1.3m/s | -43.3°C | 0.6% | 10.2hPa | 0V | 00:00:00 | 00:00:00 | 00:00:00 | |
| SP3BTT-10 | 2026-08-31 00:49:25 | -12.03056 | -77.05178 | 76° | 296km/h | 991m | 0.5m/s | -43.6°C | 2.8% | 10.2hPa | 0V | 00:00:00 | 00:00:00 | 00:00:00 | |
| SQ9EZE-15 | 2026-08-31 00:49:18 | 52.40631 | 21.78219 | 0° | 0km/h | 30091m | 0.0m/s | -43.7°C | 0.7% | 10.3hPa | 0V | 00:00:00 | 00:00:00 | 00:00:00 | |
| SP4MAZ | 2026-08-31 00:49:12 | 52.40631 | 21.78219 | 0° | 0km/h | 30091m | 0.0m/s | -43.7°C | 0.7% | 10.4hPa | 0V | 00:00:00 | 00:00:00 | 00:00:00 | |
| SQ9EZE-16 | 2026-08-31 00:49:02 | 52.40631 | 21.78219 | 0° | 0km/h | 30091m | 0.0m/s | -43.8°C | 0.7% | 10.5hPa | 0V | 00:00:00 | 00:00:00 | 00:00:00 | |
| SQ9EZE-15 | 2026-08-31 00:48:57 | 52.40631 | 21.78219 | 0° | 0km/h | 30091m | 0.0m/s | -43.8°C | 0.7% | 10.5hPa | 0V | 00:00:00 | 00:00:00 | 00:00:00 | |
| SP4MAZ | 2026-08-31 00:48:51 | 52.40631 | 21.78219 | 0° | 0km/h | 30091m | 0.0m/s | -43.9°C | 0.7% | 10.6hPa | 0V | 00:00:00 | 00:00:00 | 00:00:00 | |
| SQ9EZE-16 | 2026-08-31 00:48:47 | 52.40631 | 21.78219 | 0° | 0km/h | 30091m | 0.0m/s | -44.0°C | 0.7% | 10.7hPa | 0V | 00:00:00 | 00:00:00 | 00:00:00 | |
| SQ9EZE-16 | 2026-08-31 00:48:32 | 52.40631 | 21.78219 | 0° | 0km/h | 30091m | 0.0m/s | -44.4°C | 0.7% | 10.8hPa | 0V | 00:00:00 | 00:00:00 | 00:00:00 | |
| SP4MAZ | 2026-08-31 00:48:31 | 52.40631 | 21.78219 | 0° | 0km/h | 30091m | 0.0m/s | -44.4°C | 0.7% | 10.8hPa | 0V | 00:00:00 | 00:00:00 | 00:00:00 | |
| SQ9EZE-16 | 2026-08-31 00:48:16 | 52.40631 | 21.78219 | 0° | 0km/h | 30091m | 0.0m/s | -44.8°C | 0.7% | 11.0hPa | 0V | 00:00:00 | 00:00:00 | 00:00:00 | |
| SP4MAZ | 2026-08-31 00:48:10 | 56.17580 | 14.98331 | 0° | 0km/h | 34450m | 0.0m/s | -44.7°C | 0.7% | 11.0hPa | 0V | 00:00:00 | 00:00:00 | 00:00:00 | |
| SQ9EZE-16 | 2026-08-31 00:48:00 | 52.40631 | 21.78219 | 0° | 0km/h | 30091m | 0.0m/s | -44.6°C | 0.7% | 11.2hPa | 0V | 00:00:00 | 00:00:00 | 00:00:00 | |
| SQ9EZE-15 | 2026-08-31 00:47:48 | 52.40631 | 21.78219 | 0° | 0km/h | 30091m | 0.0m/s | -45.0°C | 0.7% | 11.3hPa | 0V | 00:00:00 | 00:00:00 | 00:00:00 | |
| SQ9EZE-16 | 2026-08-31 00:47:44 | 56.17543 | 14.98452 | 0° | 0km/h | 34512m | 0.0m/s | -45.1°C | 0.7% | 11.4hPa | 0V | 00:00:00 | 00:00:00 | 00:00:00 | |
| SP4MAZ | 2026-08-31 00:47:39 | 56.17543 | 14.98452 | 0° | 0km/h | 34512m | 0.0m/s | -45.0°C | 0.7% | 11.4hPa | 0V | 00:00:00 | 00:00:00 | 00:00:00 | |
| SQ9EZE-16 | 2026-08-31 00:47:13 | 52.52753 | 21.68431 | 0° | 0km/h | 27555m | 0.0m/s | -45.5°C | 0.7% | 11.7hPa | 0V | 00:00:00 | 00:00:00 | 00:00:00 | |
| SQ9EZE-15 | 2026-08-31 00:47:06 | 52.52431 | 21.68718 | 332° | 1455km/h | 27625m | -69.8m/s | -45.8°C | 0.7% | 11.8hPa | 0V | 00:00:00 | 00:00:00 | 00:00:00 | |
| SQ9EZE-15 | 2026-08-31 00:31:29 | 52.40599 | 21.76236 | 238° | 11km/h | 24303m | 6.4m/s | -53.0°C | 1.1% | 30.2hPa | 0V | 00:00:00 | 00:00:00 | 00:00:00 | |
| SQ9EZE-14 | 2026-08-31 00:31:19 | 52.40573 | 21.76249 | 344° | 20km/h | 24239m | 5.7m/s | 0°C | 0% | 0hPa | 0V | 00:00:00 | 00:00:00 | 00:00:00 | |
| SP4MAZ | 2026-08-31 00:31:13 | 52.40573 | 21.76271 | 275° | 15km/h | 24205m | 7.7m/s | -53.0°C | 1.1% | 30.6hPa | 0V | 00:00:00 | 00:00:00 | 00:00:00 | |
| SQ9EZE-15 | 2026-08-31 00:31:08 | 52.40564 | 21.76297 | 320° | 15km/h | 24176m | 5.6m/s | -53.2°C | 1.1% | 30.8hPa | 0V | 00:00:00 | 00:00:00 | 00:00:00 | |
| SP4MAZ | 2026-08-31 00:30:53 | 52.40521 | 21.76338 | 360° | 18km/h | 24075m | 5.3m/s | -53.5°C | 1.1% | 31.2hPa | 0V | 00:00:00 | 00:00:00 | 00:00:00 | |
| SP4MAZ | 2026-08-31 00:30:30 | 52.40467 | 21.76349 | 13° | 11km/h | 23938m | 4.7m/s | -53.9°C | 1.2% | 31.9hPa | 0V | 00:00:00 | 00:00:00 | 00:00:00 | |
| SQ9EZE-16 | 2026-08-31 00:29:49 | 52.40423 | 21.76349 | 148° | 13km/h | 23671m | 6.3m/s | -54.1°C | 1.2% | 33.1hPa | 0V | 00:00:00 | 00:00:00 | 00:00:00 | |
| SQ9EZE-15 | 2026-08-31 00:29:44 | 52.40442 | 21.76351 | 247° | 9km/h | 23650m | 5.3m/s | -54.0°C | 1.2% | 33.3hPa | 0V | 00:00:00 | 00:00:00 | 00:00:00 | |
| SP4MAZ | 2026-08-31 00:29:39 | 52.40440 | 21.76355 | 335° | 7km/h | 23623m | 6.6m/s | -54.1°C | 1.2% | 33.4hPa | 0V | 00:00:00 | 00:00:00 | 00:00:00 | |
| SQ9EZE-16 | 2026-08-31 00:29:33 | 52.40440 | 21.76364 | 267° | 5km/h | 23588m | 5.8m/s | -54.1°C | 1.2% | 33.6hPa | 0V | 00:00:00 | 00:00:00 | 00:00:00 | |
| SQ9EZE-16 | 2026-08-31 00:29:19 | 52.40427 | 21.76419 | 253° | 9km/h | 23500m | 6.0m/s | -54.5°C | 1.2% | 34.1hPa | 0V | 00:00:00 | 00:00:00 | 00:00:00 | |
| SQ9EZE-15 | 2026-08-31 00:29:04 | 52.40422 | 21.76451 | 129° | 4km/h | 23410m | 7.0m/s | -54.4°C | 1.2% | 34.6hPa | 0V | 00:00:00 | 00:00:00 | 00:00:00 | |
| SQ9EZE-16 | 2026-08-31 00:29:03 | 52.40422 | 21.76450 | 137° | 4km/h | 23403m | 5.7m/s | -54.4°C | 1.2% | 34.6hPa | 0V | 00:00:00 | 00:00:00 | 00:00:00 | |
| SP4MAZ | 2026-08-31 00:28:59 | 52.40419 | 21.76442 | 349° | 2km/h | 23379m | 7.8m/s | -54.3°C | 1.2% | 34.8hPa | 0V | 00:00:00 | 00:00:00 | 00:00:00 | |
| OE3JTB-15 | 2026-08-31 00:28:54 | 52.40427 | 21.76444 | 167° | 15km/h | 23333m | 6.2m/s | 0°C | 0% | 0hPa | 0V | 00:00:00 | 00:00:00 | 00:00:00 | |
| SQ9EZE-16 | 2026-08-31 00:28:48 | 52.40443 | 21.76417 | 104° | 16km/h | 23300m | 6.5m/s | -54.5°C | 1.3% | 35.1hPa | 0V | 00:00:00 | 00:00:00 | 00:00:00 | |
| SP4MAZ | 2026-08-31 00:28:36 | 52.40466 | 21.76390 | 173° | 20km/h | 23234m | 6.2m/s | -54.3°C | 1.2% | 35.5hPa | 0V | 00:00:00 | 00:00:00 | 00:00:00 | |
| SQ9EZE-16 | 2026-08-31 00:28:33 | 52.40480 | 21.76387 | 144° | 9km/h | 23208m | 6.4m/s | -54.2°C | 1.2% | 35.6hPa | 0V | 00:00:00 | 00:00:00 | 00:00:00 | |
| SP4MAZ | 2026-08-31 00:28:16 | 52.40515 | 21.76325 | 109° | 4km/h | 23110m | 4.5m/s | -54.1°C | 1.2% | 36.2hPa | 0V | 00:00:00 | 00:00:00 | 00:00:00 | |
| SQ9EZE-16 | 2026-08-31 00:28:14 | 52.40515 | 21.76318 | 96° | 13km/h | 23096m | 4.9m/s | -54.1°C | 1.2% | 36.3hPa | 0V | 00:00:00 | 00:00:00 | 00:00:00 | |
| SQ9EZE-16 | 2026-08-31 00:27:50 | 52.40571 | 21.76215 | 185° | 9km/h | 22905m | 5.6m/s | 0°C | 0% | 37.4hPa | 0V | 00:00:00 | 00:00:00 | 00:00:00 | |
| SQ9EZE-16 | 2026-08-31 00:27:27 | 52.40595 | 21.76217 | 0° | 0km/h | 22830m | 5.9m/s | 0°C | 0% | 37.9hPa | 0V | 00:00:00 | 00:00:00 | 00:00:00 | |
| SP4MAZ | 2026-08-31 00:27:22 | 52.40604 | 21.76222 | 227° | 13km/h | 22801m | 5.7m/s | -54.4°C | 1.2% | 38.0hPa | 0V | 00:00:00 | 00:00:00 | 00:00:00 | |
| SQ9EZE-16 | 2026-08-31 00:27:05 | 52.40632 | 21.76258 | 236° | 13km/h | 22691m | 5.9m/s | 0°C | 0% | 38.7hPa | 0V | 00:00:00 | 00:00:00 | 00:00:00 | |
| SQ9EZE-15 | 2026-08-31 00:27:02 | 52.40638 | 21.76270 | 217° | 7km/h | 22666m | 4.3m/s | -54.3°C | 1.2% | 38.8hPa | 0V | 00:00:00 | 00:00:00 | 00:00:00 | |
| SQ9EZE-16 | 2026-08-31 00:26:50 | 52.40673 | 21.76307 | 224° | 15km/h | 22604m | 6.4m/s | 0°C | 0% | 39.2hPa | 0V | 00:00:00 | 00:00:00 | 00:00:00 | |
| SQ9EZE-15 | 2026-08-31 00:26:41 | 52.40717 | 21.76340 | 190° | 20km/h | 22555m | 6.0m/s | -53.9°C | 1.2% | 39.6hPa | 0V | 00:00:00 | 00:00:00 | 00:00:00 | |
| SQ9EZE-16 | 2026-08-31 00:26:34 | 52.40751 | 21.76347 | 213° | 15km/h | 22509m | 4.9m/s | 0°C | 0% | 0hPa | 0V | 00:00:00 | 00:00:00 | 00:00:00 | |
| SP4MAZ | 2026-08-31 00:26:30 | 52.40770 | 21.76346 | 169° | 22km/h | 22484m | 6.9m/s | -53.5°C | 1.2% | 40.0hPa | 0V | 00:00:00 | 00:00:00 | 00:00:00 | |
| SQ9EZE-16 | 2026-08-31 00:26:19 | 52.40833 | 21.76332 | 164° | 24km/h | 22417m | 4.5m/s | 0°C | 0% | 0hPa | 0V | 00:00:00 | 00:00:00 | 00:00:00 | |
| SP4MAZ | 2026-08-31 00:26:08 | 52.40899 | 21.76272 | 145° | 20km/h | 22350m | 5.8m/s | -53.5°C | 1.2% | 40.8hPa | 0V | 00:00:00 | 00:00:00 | 00:00:00 | |
| SQ9EZE-16 | 2026-08-31 00:26:03 | 52.40921 | 21.76247 | 144° | 24km/h | 22318m | 6.0m/s | 0°C | 0% | 0hPa | 0V | 00:00:00 | 00:00:00 | 00:00:00 | |
| SQ9EZE-16 | 2026-08-31 00:25:48 | 52.40964 | 21.76108 | 87° | 20km/h | 22233m | 6.5m/s | 0°C | 0% | 0hPa | 0V | 00:00:00 | 00:00:00 | 00:00:00 | |
| SP4MAZ | 2026-08-31 00:25:47 | 52.40962 | 21.76100 | 73° | 18km/h | 22225m | 7.2m/s | -54.0°C | 1.2% | 41.6hPa | 0V | 00:00:00 | 00:00:00 | 00:00:00 | |
| SQ9EZE-16 | 2026-08-31 00:25:32 | 52.40955 | 21.75965 | 86° | 13km/h | 22128m | 5.6m/s | 0°C | 0% | 0hPa | 0V | 00:00:00 | 00:00:00 | 00:00:00 | |
| SP4MAZ | 2026-08-31 00:25:16 | 52.40962 | 21.75912 | 156° | 5km/h | 22040m | 7.0m/s | -53.8°C | 1.2% | 42.8hPa | 0V | 00:00:00 | 00:00:00 | 00:00:00 | |
| SQ9EZE-15 | 2026-08-31 00:25:14 | 52.40964 | 21.75909 | 71° | 4km/h | 22027m | 5.5m/s | -53.8°C | 1.2% | 42.9hPa | 0V | 00:00:00 | 00:00:00 | 00:00:00 | |
| SP4MAZ | 2026-08-31 00:24:56 | 52.40958 | 21.75836 | 107° | 9km/h | 21914m | 6.7m/s | -53.9°C | 1.2% | 43.6hPa | 0V | 00:00:00 | 00:00:00 | 00:00:00 | |
| SQ9EZE-15 | 2026-08-31 00:24:49 | 52.40964 | 21.75820 | 180° | 9km/h | 21873m | 6.0m/s | -53.9°C | 1.2% | 43.9hPa | 0V | 00:00:00 | 00:00:00 | 00:00:00 | |
| SP4MAZ | 2026-08-31 00:24:33 | 52.41004 | 21.75801 | 141° | 13km/h | 21784m | 3.6m/s | -53.5°C | 1.2% | 44.6hPa | 0V | 00:00:00 | 00:00:00 | 00:00:00 | |
| SP4MAZ | 2026-08-31 00:24:13 | 52.41026 | 21.75658 | 65° | 16km/h | 21645m | 5.1m/s | -54.4°C | 1.3% | 45.4hPa | 0V | 00:00:00 | 00:00:00 | 00:00:00 | |
| SQ9EZE-16 | 2026-08-31 00:23:51 | 52.40985 | 21.75532 | 81° | 20km/h | 21523m | 4.2m/s | -54.2°C | 1.2% | 46.3hPa | 0V | 00:00:00 | 00:00:00 | 00:00:00 | |
| SP4MAZ | 2026-08-31 00:23:40 | 52.40967 | 21.75478 | 76° | 15km/h | 21471m | 6.3m/s | -53.9°C | 1.2% | 46.8hPa | 0V | 00:00:00 | 00:00:00 | 00:00:00 | |
| SQ9EZE-16 | 2026-08-31 00:23:35 | 52.40955 | 21.75458 | 30° | 13km/h | 21438m | 6.5m/s | -53.8°C | 1.2% | 46.9hPa | 0V | 00:00:00 | 00:00:00 | 00:00:00 | |
| SQ9EZE-16 | 2026-08-31 00:23:18 | 52.40926 | 21.75433 | 45° | 13km/h | 21340m | 5.8m/s | -53.9°C | 1.2% | 47.7hPa | 0V | 00:00:00 | 00:00:00 | 00:00:00 | |
| SP4MAZ | 2026-08-31 00:23:17 | 52.40924 | 21.75430 | 51° | 13km/h | 21335m | 4.3m/s | -53.9°C | 1.2% | 47.7hPa | 0V | 00:00:00 | 00:00:00 | 00:00:00 | |
| SQ9EZE-16 | 2026-08-31 00:23:02 | 52.40929 | 21.75444 | 309° | 5km/h | 21252m | 4.8m/s | -53.9°C | 1.2% | 48.4hPa | 0V | 00:00:00 | 00:00:00 | 00:00:00 | |
| SQ9EZE-16 | 2026-08-31 00:22:46 | 52.40955 | 21.75472 | 210° | 15km/h | 21161m | 5.0m/s | -54.1°C | 1.3% | 49.0hPa | 0V | 00:00:00 | 00:00:00 | 00:00:00 | |
| SP4MAZ | 2026-08-31 00:22:45 | 52.40958 | 21.75475 | 213° | 16km/h | 21156m | 5.3m/s | -54.1°C | 1.2% | 49.1hPa | 0V | 00:00:00 | 00:00:00 | 00:00:00 | |
| SQ9EZE-16 | 2026-08-31 00:22:31 | 52.41010 | 21.75501 | 188° | 27km/h | 21080m | 6.4m/s | -54.4°C | 1.2% | 49.7hPa | 0V | 00:00:00 | 00:00:00 | 00:00:00 | |
| SP4MAZ | 2026-08-31 00:22:21 | 52.41064 | 21.75494 | 142° | 18km/h | 21024m | 6.0m/s | -54.6°C | 1.3% | 50.1hPa | 0V | 00:00:00 | 00:00:00 | 00:00:00 | |
| SQ9EZE-16 | 2026-08-31 00:22:15 | 52.41090 | 21.75475 | 154° | 20km/h | 20986m | 5.1m/s | -54.7°C | 1.3% | 50.4hPa | 0V | 00:00:00 | 00:00:00 | 00:00:00 | |
| SP4MAZ | 2026-08-31 00:22:01 | 52.41130 | 21.75382 | 127° | 13km/h | 20899m | 4.7m/s | -54.8°C | 1.3% | 51.0hPa | 0V | 00:00:00 | 00:00:00 | 00:00:00 | |
| SQ9EZE-15 | 2026-08-31 00:22:00 | 52.41132 | 21.75378 | 129° | 15km/h | 20892m | 5.2m/s | -54.9°C | 1.3% | 51.1hPa | 0V | 00:00:00 | 00:00:00 | 00:00:00 | |
| SQ9EZE-16 | 2026-08-31 00:21:59 | 52.41135 | 21.75373 | 83° | 11km/h | 20886m | 4.5m/s | -54.9°C | 1.3% | 51.1hPa | 0V | 00:00:00 | 00:00:00 | 00:00:00 | |
| SQ9EZE-16 | 2026-08-31 00:21:44 | 52.41145 | 21.75262 | 86° | 16km/h | 20808m | 6.8m/s | -54.9°C | 0% | 0hPa | 0V | 00:00:00 | 00:00:00 | 00:00:00 | |
| SQ9EZE-15 | 2026-08-31 00:21:40 | 52.41141 | 21.75232 | 63° | 20km/h | 20786m | 6.1m/s | -54.9°C | 1.3% | 52.0hPa | 0V | 00:00:00 | 00:00:00 | 00:00:00 | |
| SP4MAZ | 2026-08-31 00:21:29 | 52.41126 | 21.75154 | 53° | 20km/h | 20712m | 4.4m/s | -55.0°C | 1.3% | 52.6hPa | 0V | 00:00:00 | 00:00:00 | 00:00:00 | |
| SQ9EZE-16 | 2026-08-31 00:21:28 | 52.41123 | 21.75149 | 45° | 18km/h | 20707m | 5.6m/s | -55.0°C | 0% | 0hPa | 0V | 00:00:00 | 00:00:00 | 00:00:00 | |
| SQ9EZE-15 | 2026-08-31 00:21:19 | 52.41086 | 21.75116 | 53° | 16km/h | 20655m | 6.1m/s | -54.6°C | 1.3% | 53.1hPa | 0V | 00:00:00 | 00:00:00 | 00:00:00 | |
| SQ9EZE-16 | 2026-08-31 00:21:12 | 52.41069 | 21.75086 | 38° | 13km/h | 20619m | 5.4m/s | 0°C | 0% | 0hPa | 0V | 00:00:00 | 00:00:00 | 00:00:00 | |
| SP4MAZ | 2026-08-31 00:21:09 | 52.41064 | 21.75074 | 55° | 11km/h | 20601m | 6.1m/s | -54.1°C | 1.3% | 53.5hPa | 0V | 00:00:00 | 00:00:00 | 00:00:00 | |
| SQ9EZE-16 | 2026-08-31 00:20:56 | 52.41058 | 21.75021 | 104° | 11km/h | 20528m | 6.7m/s | 0°C | 0% | 0hPa | 0V | 00:00:00 | 00:00:00 | 00:00:00 | |
| SP4MAZ | 2026-08-31 00:20:47 | 52.41064 | 21.75010 | 99° | 13km/h | 20470m | 7.5m/s | -54.1°C | 1.2% | 54.6hPa | 0V | 00:00:00 | 00:00:00 | 00:00:00 | |
| SQ9EZE-16 | 2026-08-31 00:20:40 | 52.41062 | 21.74974 | 30° | 7km/h | 20422m | 5.6m/s | 0°C | 0% | 0hPa | 0V | 00:00:00 | 00:00:00 | 00:00:00 | |
| SQ9EZE-15 | 2026-08-31 00:20:39 | 52.41061 | 21.74972 | 8° | 7km/h | 20416m | 5.9m/s | -54.3°C | 1.2% | 55.0hPa | 0V | 00:00:00 | 00:00:00 | 00:00:00 | |
| SQ9EZE-16 | 2026-08-31 00:20:24 | 52.41012 | 21.74931 | 5° | 18km/h | 20332m | 4.7m/s | 0°C | 0% | 0hPa | 0V | 00:00:00 | 00:00:00 | 00:00:00 | |
| SQ9EZE-15 | 2026-08-31 00:20:18 | 52.41003 | 21.74930 | 332° | 5km/h | 20297m | 4.8m/s | -54.6°C | 1.3% | 56.1hPa | 0V | 00:00:00 | 00:00:00 | 00:00:00 | |
| SP4MAZ | 2026-08-31 00:20:14 | 52.40997 | 21.74932 | 7° | 11km/h | 20273m | 5.1m/s | -54.4°C | 1.3% | 56.3hPa | 0V | 00:00:00 | 00:00:00 | 00:00:00 | |
| SQ9EZE-15 | 2026-08-31 00:19:51 | 52.40994 | 21.74936 | 203° | 5km/h | 20135m | 4.6m/s | -53.7°C | 1.2% | 57.4hPa | 0V | 00:00:00 | 00:00:00 | 00:00:00 | |
| SP4MAZ | 2026-08-31 00:19:50 | 52.40996 | 21.74936 | 207° | 5km/h | 20131m | 5.7m/s | -53.7°C | 1.2% | 57.5hPa | 0V | 00:00:00 | 00:00:00 | 00:00:00 | |
| SQ9EZE-15 | 2026-08-31 00:19:31 | 52.41049 | 21.74934 | 186° | 22km/h | 20031m | 3.8m/s | -53.8°C | 1.2% | 58.4hPa | 0V | 00:00:00 | 00:00:00 | 00:00:00 | |
| SQ9EZE-16 | 2026-08-31 00:19:22 | 52.41086 | 21.74910 | 128° | 13km/h | 19992m | 4.4m/s | 0°C | 0% | 0hPa | 0V | 00:00:00 | 00:00:00 | 00:00:00 | |
| SP4MAZ | 2026-08-31 00:19:20 | 52.41092 | 21.74903 | 164° | 13km/h | 19977m | 4.8m/s | -54.1°C | 1.3% | 59.0hPa | 0V | 00:00:00 | 00:00:00 | 00:00:00 | |
| SP4MAZ | 2026-08-31 00:19:00 | 52.41125 | 21.74843 | 90° | 9km/h | 19879m | 5.8m/s | -54.2°C | 1.3% | 60.0hPa | 0V | 00:00:00 | 00:00:00 | 00:00:00 | |
| SP4MAZ | 2026-08-31 00:18:39 | 52.41123 | 21.74759 | 56° | 7km/h | 19763m | 5.0m/s | -54.0°C | 1.3% | 61.1hPa | 0V | 00:00:00 | 00:00:00 | 00:00:00 | |
| SP4MAZ | 2026-08-31 00:18:17 | 52.41116 | 21.74723 | 176° | 5km/h | 19636m | 5.6m/s | -53.9°C | 1.3% | 62.2hPa | 0V | 00:00:00 | 00:00:00 | 00:00:00 | |
| SP4MAZ | 2026-08-31 00:17:56 | 52.41134 | 21.74692 | 96° | 9km/h | 19515m | 5.1m/s | -54.1°C | 1.3% | 63.3hPa | 0V | 00:00:00 | 00:00:00 | 00:00:00 | |
| SQ9EZE-16 | 2026-08-31 00:17:50 | 52.41134 | 21.74671 | 98° | 9km/h | 19476m | 3.5m/s | -54.1°C | 0% | 63.7hPa | 0V | 00:00:00 | 00:00:00 | 00:00:00 | |
| SQ9EZE-15 | 2026-08-31 00:17:39 | 52.41136 | 21.74636 | 118° | 18km/h | 19417m | 5.7m/s | -54.1°C | 1.3% | 64.3hPa | 0V | 00:00:00 | 00:00:00 | 00:00:00 | |
| SQ9EZE-16 | 2026-08-31 00:17:35 | 52.41138 | 21.74606 | 100° | 16km/h | 19392m | 4.0m/s | -54.1°C | 0% | 0hPa | 0V | 00:00:00 | 00:00:00 | 00:00:00 | |
| SP4MAZ | 2026-08-31 00:17:25 | 52.41141 | 21.74567 | 112° | 16km/h | 19334m | 4.7m/s | -54.2°C | 1.3% | 65.1hPa | 0V | 00:00:00 | 00:00:00 | 00:00:00 | |
| SQ9EZE-16 | 2026-08-31 00:17:20 | 52.41145 | 21.74541 | 108° | 13km/h | 19306m | 4.7m/s | -54.1°C | 0% | 0hPa | 0V | 00:00:00 | 00:00:00 | 00:00:00 | |
| SQ9EZE-15 | 2026-08-31 00:17:19 | 52.41145 | 21.74537 | 89° | 11km/h | 19301m | 4.3m/s | -54.1°C | 1.2% | 65.4hPa | 0V | 00:00:00 | 00:00:00 | 00:00:00 | |
| SQ9EZE-16 | 2026-08-31 00:17:04 | 52.41146 | 21.74468 | 97° | 9km/h | 19219m | 5.2m/s | -54.4°C | 0% | 0hPa | 0V | 00:00:00 | 00:00:00 | 00:00:00 | |
| SQ9EZE-16 | 2026-08-31 00:16:47 | 52.41127 | 21.74372 | 66° | 18km/h | 19137m | 3.8m/s | 0°C | 0% | 0hPa | 0V | 00:00:00 | 00:00:00 | 00:00:00 | |
| SP4MAZ | 2026-08-31 00:16:42 | 52.41116 | 21.74331 | 77° | 20km/h | 19112m | 4.6m/s | -55.0°C | 1.3% | 67.5hPa | 0V | 00:00:00 | 00:00:00 | 00:00:00 | |
| SQ9EZE-16 | 2026-08-31 00:16:32 | 52.41096 | 21.74260 | 73° | 18km/h | 19054m | 5.0m/s | 0°C | 0% | 0hPa | 0V | 00:00:00 | 00:00:00 | 00:00:00 | |
| SQ9EZE-15 | 2026-08-31 00:16:31 | 52.41096 | 21.74260 | 73° | 18km/h | 19054m | 5.0m/s | -55.0°C | 0% | 0hPa | 0V | 00:00:00 | 00:00:00 | 00:00:00 | |
| SP4MAZ | 2026-08-31 00:16:21 | 52.41077 | 21.74157 | 69° | 29km/h | 18999m | 6.0m/s | -54.8°C | 1.3% | 68.7hPa | 0V | 00:00:00 | 00:00:00 | 00:00:00 | |
| SP4MAZ | 2026-08-31 00:16:01 | 52.41038 | 21.74009 | 49° | 18km/h | 18892m | 4.0m/s | -54.7°C | 1.3% | 69.9hPa | 0V | 00:00:00 | 00:00:00 | 00:00:00 | |
| SP4MAZ | 2026-08-31 00:15:29 | 52.41028 | 21.73802 | 106° | 20km/h | 18710m | 4.4m/s | -55.1°C | 1.4% | 71.9hPa | 0V | 00:00:00 | 00:00:00 | 00:00:00 | |
| SQ9EZE-15 | 2026-08-31 00:15:09 | 52.41034 | 21.73593 | 89° | 22km/h | 18605m | 4.9m/s | -55.3°C | 1.4% | 73.0hPa | 0V | 00:00:00 | 00:00:00 | 00:00:00 | |
| SP4MAZ | 2026-08-31 00:15:06 | 52.41034 | 21.73562 | 87° | 31km/h | 18589m | 6.2m/s | -55.3°C | 1.4% | 73.2hPa | 0V | 00:00:00 | 00:00:00 | 00:00:00 | |
| SQ9EZE-15 | 2026-08-31 00:14:49 | 52.41001 | 21.73338 | 76° | 33km/h | 18496m | 5.2m/s | -55.5°C | 1.4% | 74.2hPa | 0V | 00:00:00 | 00:00:00 | 00:00:00 | |
| SQ9EZE-16 | 2026-08-31 00:14:47 | 52.40997 | 21.73310 | 75° | 33km/h | 18485m | 6.5m/s | -55.6°C | 1.4% | 74.4hPa | 0V | 00:00:00 | 00:00:00 | 00:00:00 | |
| SP4MAZ | 2026-08-31 00:14:45 | 52.40992 | 21.73285 | 75° | 29km/h | 18474m | 5.4m/s | -55.6°C | 1.4% | 74.5hPa | 0V | 00:00:00 | 00:00:00 | 00:00:00 | |
| KRY50SP | 2026-08-31 00:14:33 | 52.40957 | 21.73157 | 55° | 33km/h | 18409m | 4.2m/s | -55.4°C | 1.4% | 75.3hPa | 0V | 00:00:00 | 00:00:00 | 00:00:00 | |
| SQ9EZE-16 | 2026-08-31 00:14:30 | 52.40941 | 21.73127 | 51° | 31km/h | 18396m | 4.5m/s | -55.4°C | 0% | 75.4hPa | 0V | 00:00:00 | 00:00:00 | 00:00:00 | |
| SQ9EZE-15 | 2026-08-31 00:14:28 | 52.40929 | 21.73106 | 55° | 33km/h | 18385m | 4.7m/s | -55.4°C | 0% | 75.6hPa | 0V | 00:00:00 | 00:00:00 | 00:00:00 | |
| KRY50SP | 2026-08-31 00:14:27 | 52.40924 | 21.73095 | 50° | 33km/h | 18380m | 4.0m/s | -55.4°C | 1.4% | 75.6hPa | 0V | 00:00:00 | 00:00:00 | 00:00:00 | |
| KRY50SP | 2026-08-31 00:14:22 | 52.40899 | 21.73046 | 49° | 31km/h | 18351m | 4.7m/s | -55.2°C | 1.4% | 75.9hPa | 0V | 00:00:00 | 00:00:00 | 00:00:00 | |
| SP4MAZ | 2026-08-31 00:14:15 | 52.40860 | 21.72995 | 38° | 20km/h | 18316m | 4.1m/s | -54.9°C | 1.4% | 76.4hPa | 0V | 00:00:00 | 00:00:00 | 00:00:00 | |
| KRY50SP | 2026-08-31 00:14:10 | 52.40841 | 21.72959 | 55° | 27km/h | 18288m | 4.3m/s | -54.9°C | 1.4% | 76.7hPa | 0V | 00:00:00 | 00:00:00 | 00:00:00 | |
| KRY50SP | 2026-08-31 00:14:04 | 52.40812 | 21.72907 | 49° | 27km/h | 18258m | 5.7m/s | -54.8°C | 1.4% | 77.1hPa | 0V | 00:00:00 | 00:00:00 | 00:00:00 | |
| SQ9EZE-16 | 2026-08-31 00:14:00 | 52.40795 | 21.72875 | 53° | 24km/h | 18234m | 4.4m/s | 0°C | 0% | 0hPa | 0V | 00:00:00 | 00:00:00 | 00:00:00 | |
| SP4MAZ | 2026-08-31 00:13:54 | 52.40775 | 21.72831 | 49° | 20km/h | 18200m | 6.1m/s | -54.5°C | 1.4% | 77.7hPa | 0V | 00:00:00 | 00:00:00 | 00:00:00 | |
| KRY50SP | 2026-08-31 00:13:47 | 52.40748 | 21.72779 | 54° | 20km/h | 18163m | 4.1m/s | -54.4°C | 1.3% | 78.2hPa | 0V | 00:00:00 | 00:00:00 | 00:00:00 | |
| SQ9EZE-15 | 2026-08-31 00:13:46 | 52.40740 | 21.72767 | 43° | 18km/h | 18151m | 5.1m/s | -54.3°C | 0% | 0hPa | 0V | 00:00:00 | 00:00:00 | 00:00:00 | |
| SQ9EZE-16 | 2026-08-31 00:13:44 | 52.40738 | 21.72763 | 49° | 15km/h | 18144m | 5.0m/s | 0°C | 0% | 0hPa | 0V | 00:00:00 | 00:00:00 | 00:00:00 | |
| KRY50SP | 2026-08-31 00:13:42 | 52.40732 | 21.72753 | 59° | 15km/h | 18132m | 3.5m/s | -54.2°C | 1.3% | 78.5hPa | 0V | 00:00:00 | 00:00:00 | 00:00:00 | |
| KRY50SP | 2026-08-31 00:13:36 | 52.40716 | 21.72726 | 73° | 15km/h | 18107m | 4.0m/s | -54.4°C | 1.3% | 78.9hPa | 0V | 00:00:00 | 00:00:00 | 00:00:00 | |
| KRY50SP | 2026-08-31 00:13:31 | 52.40711 | 21.72702 | 73° | 13km/h | 18083m | 5.4m/s | -54.6°C | 1.4% | 79.2hPa | 0V | 00:00:00 | 00:00:00 | 00:00:00 | |
| SQ9EZE-16 | 2026-08-31 00:13:28 | 52.40708 | 21.72690 | 41° | 9km/h | 18066m | 5.5m/s | 0°C | 0% | 0hPa | 0V | 00:00:00 | 00:00:00 | 00:00:00 | |
| SQ9EZE-15 | 2026-08-31 00:13:25 | 52.40701 | 21.72681 | 38° | 13km/h | 18049m | 4.3m/s | -54.5°C | 0% | 0hPa | 0V | 00:00:00 | 00:00:00 | 00:00:00 | |
| KRY50SP | 2026-08-31 00:13:24 | 52.40698 | 21.72678 | 37° | 13km/h | 18045m | 5.4m/s | -54.5°C | 1.4% | 79.6hPa | 0V | 00:00:00 | 00:00:00 | 00:00:00 | |
| KRY50SP | 2026-08-31 00:13:16 | 52.40668 | 21.72647 | 33° | 20km/h | 18007m | 4.9m/s | -54.4°C | 1.4% | 80.1hPa | 0V | 00:00:00 | 00:00:00 | 00:00:00 | |
| KRY50SP | 2026-08-31 00:13:05 | 52.40628 | 21.72583 | 52° | 29km/h | 17951m | 6.6m/s | -54.0°C | 1.3% | 80.9hPa | 0V | 00:00:00 | 00:00:00 | 00:00:00 | |
| KRY50SP | 2026-08-31 00:12:54 | 52.40589 | 21.72480 | 59° | 24km/h | 17892m | 4.6m/s | -53.8°C | 1.3% | 81.6hPa | 0V | 00:00:00 | 00:00:00 | 00:00:00 | |
| KRY50SP | 2026-08-31 00:12:49 | 52.40569 | 21.72438 | 59° | 27km/h | 17864m | 4.7m/s | -53.7°C | 1.3% | 81.9hPa | 0V | 00:00:00 | 00:00:00 | 00:00:00 | |
| KRY50SP | 2026-08-31 00:12:44 | 52.40552 | 21.72395 | 68° | 24km/h | 17836m | 4.3m/s | -53.9°C | 1.4% | 82.3hPa | 0V | 00:00:00 | 00:00:00 | 00:00:00 | |
| SP4MAZ | 2026-08-31 00:12:41 | 52.40541 | 21.72371 | 48° | 27km/h | 17820m | 3.6m/s | -53.9°C | 1.4% | 82.5hPa | 0V | 00:00:00 | 00:00:00 | 00:00:00 | |
| KRY50SP | 2026-08-31 00:12:37 | 52.40521 | 21.72335 | 48° | 29km/h | 17801m | 5.9m/s | -53.9°C | 1.4% | 82.7hPa | 0V | 00:00:00 | 00:00:00 | 00:00:00 | |
| SQ9EZE-16 | 2026-08-31 00:12:30 | 52.40487 | 21.72267 | 45° | 33km/h | 17766m | 4.3m/s | -53.7°C | 0% | 0hPa | 0V | 00:00:00 | 00:00:00 | 00:00:00 | |
| KRY50SP | 2026-08-31 00:12:24 | 52.40449 | 21.72216 | 39° | 29km/h | 17735m | 6.6m/s | -53.4°C | 1.3% | 83.6hPa | 0V | 00:00:00 | 00:00:00 | 00:00:00 | |
| SP4MAZ | 2026-08-31 00:12:21 | 52.40430 | 21.72192 | 40° | 29km/h | 17719m | 6.4m/s | -53.2°C | 1.3% | 83.8hPa | 0V | 00:00:00 | 00:00:00 | 00:00:00 | |
| KRY50SP | 2026-08-31 00:12:19 | 52.40418 | 21.72176 | 45° | 29km/h | 17708m | 7.6m/s | -53.2°C | 1.3% | 84.0hPa | 0V | 00:00:00 | 00:00:00 | 00:00:00 | |
| SQ9EZE-16 | 2026-08-31 00:12:14 | 52.40392 | 21.72144 | 25° | 29km/h | 17677m | 5.8m/s | -53.4°C | 0% | 0hPa | 0V | 00:00:00 | 00:00:00 | 00:00:00 | |
| KRY50SP | 2026-08-31 00:12:13 | 52.40385 | 21.72139 | 27° | 27km/h | 17671m | 6.5m/s | -53.6°C | 1.3% | 84.4hPa | 0V | 00:00:00 | 00:00:00 | 00:00:00 | |
| KRY50SP | 2026-08-31 00:12:07 | 52.40346 | 21.72108 | 41° | 26km/h | 17637m | 3.8m/s | -53.7°C | 1.4% | 84.8hPa | 0V | 00:00:00 | 00:00:00 | 00:00:00 | |
| KRY50SP | 2026-08-31 00:12:02 | 52.40318 | 21.72082 | 28° | 24km/h | 17612m | 5.8m/s | -53.6°C | 1.4% | 85.2hPa | 0V | 00:00:00 | 00:00:00 | 00:00:00 | |
| SQ9EZE-15 | 2026-08-31 00:12:01 | 52.40312 | 21.72078 | 23° | 20km/h | 17608m | 4.0m/s | -53.6°C | 0% | 85.2hPa | 0V | 00:00:00 | 00:00:00 | 00:00:00 | |
| SQ9EZE-16 | 2026-08-31 00:11:59 | 52.40302 | 21.72073 | 8° | 24km/h | 17598m | 4.7m/s | -53.5°C | 0% | 0hPa | 0V | 00:00:00 | 00:00:00 | 00:00:00 | |
| KRY50SP | 2026-08-31 00:11:57 | 52.40284 | 21.72065 | 17° | 22km/h | 17580m | 4.3m/s | -53.5°C | 1.3% | 85.6hPa | 0V | 00:00:00 | 00:00:00 | 00:00:00 | |
| KRY50SP | 2026-08-31 00:11:51 | 52.40253 | 21.72049 | 41° | 26km/h | 17552m | 2.7m/s | -53.4°C | 1.3% | 85.9hPa | 0V | 00:00:00 | 00:00:00 | 00:00:00 | |
| KRY50SP | 2026-08-31 00:11:45 | 52.40221 | 21.72025 | 19° | 16km/h | 17524m | 4.3m/s | -53.5°C | 1.3% | 86.3hPa | 0V | 00:00:00 | 00:00:00 | 00:00:00 | |
| SQ9EZE-16 | 2026-08-31 00:11:43 | 52.40212 | 21.72024 | 359° | 16km/h | 17515m | 4.5m/s | 0°C | 0% | 0hPa | 0V | 00:00:00 | 00:00:00 | 00:00:00 | |
| KRY50SP | 2026-08-31 00:11:39 | 52.40194 | 21.72021 | 11° | 15km/h | 17495m | 6.3m/s | -54.0°C | 1.4% | 86.8hPa | 0V | 00:00:00 | 00:00:00 | 00:00:00 | |
| SP4MAZ | 2026-08-31 00:11:38 | 52.40190 | 21.72019 | 16° | 15km/h | 17489m | 4.6m/s | -54.0°C | 1.4% | 86.9hPa | 0V | 00:00:00 | 00:00:00 | 00:00:00 | |
| KRY50SP | 2026-08-31 00:11:34 | 52.40178 | 21.72008 | 23° | 13km/h | 17469m | 6.4m/s | -53.8°C | 1.4% | 87.2hPa | 0V | 00:00:00 | 00:00:00 | 00:00:00 | |
| KRY50SP | 2026-08-31 00:11:27 | 52.40164 | 21.71991 | 45° | 15km/h | 17432m | 5.1m/s | -53.7°C | 1.4% | 87.7hPa | 0V | 00:00:00 | 00:00:00 | 00:00:00 | |
| KRY50SP | 2026-08-31 00:11:20 | 52.40143 | 21.71949 | 54° | 18km/h | 17389m | 4.7m/s | -53.5°C | 1.4% | 88.2hPa | 0V | 00:00:00 | 00:00:00 | 00:00:00 | |
| SP4MAZ | 2026-08-31 00:11:18 | 52.40137 | 21.71938 | 53° | 16km/h | 17376m | 3.7m/s | -53.5°C | 1.4% | 88.4hPa | 0V | 00:00:00 | 00:00:00 | 00:00:00 | |
| KRY50SP | 2026-08-31 00:11:15 | 52.40123 | 21.71917 | 52° | 16km/h | 17352m | 4.2m/s | -53.3°C | 1.4% | 88.6hPa | 0V | 00:00:00 | 00:00:00 | 00:00:00 | |
| SQ9EZE-15 | 2026-08-31 00:11:13 | 52.40121 | 21.71912 | 46° | 20km/h | 17352m | 4.2m/s | -53.2°C | 0% | 0hPa | 0V | 00:00:00 | 00:00:00 | 00:00:00 | |
| KRY50SP | 2026-08-31 00:11:08 | 52.40107 | 21.71882 | 53° | 11km/h | 17324m | 3.8m/s | -53.0°C | 1.4% | 89.1hPa | 0V | 00:00:00 | 00:00:00 | 00:00:00 | |
| KRY50SP | 2026-08-31 00:11:02 | 52.40097 | 21.71856 | 29° | 16km/h | 17297m | 5.6m/s | -52.9°C | 1.3% | 89.5hPa | 0V | 00:00:00 | 00:00:00 | 00:00:00 | |
| KRY50SP | 2026-08-31 00:10:56 | 52.40077 | 21.71822 | 79° | 20km/h | 17264m | 4.9m/s | -52.7°C | 1.3% | 89.9hPa | 0V | 00:00:00 | 00:00:00 | 00:00:00 | |
| KRY50SP | 2026-08-31 00:10:50 | 52.40069 | 21.71790 | 59° | 18km/h | 17232m | 4.0m/s | -53.3°C | 1.4% | 90.4hPa | 0V | 00:00:00 | 00:00:00 | 00:00:00 | |
| SP4MAZ | 2026-08-31 00:10:47 | 52.40066 | 21.71768 | 98° | 15km/h | 17215m | 5.1m/s | -53.6°C | 1.4% | 90.6hPa | 0V | 00:00:00 | 00:00:00 | 00:00:00 | |
| KRY50SP | 2026-08-31 00:10:44 | 52.40068 | 21.71749 | 84° | 18km/h | 17197m | 4.2m/s | -53.7°C | 1.4% | 90.8hPa | 0V | 00:00:00 | 00:00:00 | 00:00:00 | |
| KRY50SP | 2026-08-31 00:10:39 | 52.40069 | 21.71702 | 97° | 27km/h | 17173m | 5.6m/s | -53.9°C | 1.4% | 91.2hPa | 0V | 00:00:00 | 00:00:00 | 00:00:00 | |
| KRY50SP | 2026-08-31 00:10:34 | 52.40072 | 21.71647 | 98° | 26km/h | 17149m | 4.0m/s | -54.1°C | 1.4% | 91.6hPa | 0V | 00:00:00 | 00:00:00 | 00:00:00 | |
| KRY50SP | 2026-08-31 00:10:28 | 52.40074 | 21.71590 | 89° | 24km/h | 17121m | 4.9m/s | -54.2°C | 1.5% | 92.0hPa | 0V | 00:00:00 | 00:00:00 | 00:00:00 | |
| SP4MAZ | 2026-08-31 00:10:26 | 52.40073 | 21.71568 | 81° | 27km/h | 17110m | 3.8m/s | -54.2°C | 1.5% | 92.1hPa | 0V | 00:00:00 | 00:00:00 | 00:00:00 | |
| KRY50SP | 2026-08-31 00:10:22 | 52.40072 | 21.71508 | 83° | 40km/h | 17090m | 5.7m/s | -54.2°C | 1.5% | 92.4hPa | 0V | 00:00:00 | 00:00:00 | 00:00:00 | |
| KRY50SP | 2026-08-31 00:10:16 | 52.40063 | 21.71414 | 74° | 35km/h | 17058m | 4.6m/s | -54.1°C | 1.5% | 92.8hPa | 0V | 00:00:00 | 00:00:00 | 00:00:00 | |
| SQ9EZE-16 | 2026-08-31 00:10:14 | 52.40058 | 21.71386 | 80° | 35km/h | 17047m | 5.6m/s | -54.2°C | 0% | 93.0hPa | 0V | 00:00:00 | 00:00:00 | 00:00:00 | |
| KRY50SP | 2026-08-31 00:10:11 | 52.40051 | 21.71341 | 73° | 38km/h | 17034m | 5.6m/s | -54.2°C | 1.5% | 93.2hPa | 0V | 00:00:00 | 00:00:00 | 00:00:00 | |
| SQ9EZE-15 | 2026-08-31 00:10:10 | 52.40048 | 21.71325 | 75° | 38km/h | 17028m | 4.7m/s | 0°C | 0% | 93.3hPa | 0V | 00:00:00 | 00:00:00 | 00:00:00 | |
| KRY50SP | 2026-08-31 00:10:06 | 52.40037 | 21.71264 | 79° | 40km/h | 17005m | 5.6m/s | -54.2°C | 1.5% | 93.5hPa | 0V | 00:00:00 | 00:00:00 | 00:00:00 | |
| KRY50SP | 2026-08-31 00:10:00 | 52.40020 | 21.71182 | 62° | 35km/h | 16973m | 5.1m/s | -54.3°C | 1.5% | 94.1hPa | 0V | 00:00:00 | 00:00:00 | 00:00:00 | |
| SQ9EZE-16 | 2026-08-31 00:09:58 | 52.40012 | 21.71157 | 61° | 31km/h | 16964m | 6.5m/s | 0°C | 0% | 94.2hPa | 0V | 00:00:00 | 00:00:00 | 00:00:00 | |
| KRY50SP | 2026-08-31 00:09:54 | 52.39997 | 21.71106 | 64° | 37km/h | 16947m | 5.0m/s | -54.4°C | 1.5% | 94.5hPa | 0V | 00:00:00 | 00:00:00 | 00:00:00 | |
| SQ9EZE-15 | 2026-08-31 00:09:49 | 52.39977 | 21.71034 | 62° | 42km/h | 16919m | 4.6m/s | 0°C | 0% | 0hPa | 0V | 00:00:00 | 00:00:00 | 00:00:00 | |
| KRY50SP | 2026-08-31 00:09:44 | 52.39952 | 21.70958 | 58° | 44km/h | 16889m | 4.7m/s | -54.5°C | 1.5% | 95.3hPa | 0V | 00:00:00 | 00:00:00 | 00:00:00 | |
| SQ9EZE-16 | 2026-08-31 00:09:42 | 52.39940 | 21.70928 | 60° | 42km/h | 16878m | 4.4m/s | 0°C | 0% | 0hPa | 0V | 00:00:00 | 00:00:00 | 00:00:00 | |
| KRY50SP | 2026-08-31 00:09:38 | 52.39917 | 21.70868 | 63° | 40km/h | 16857m | 5.7m/s | -54.3°C | 1.5% | 95.8hPa | 0V | 00:00:00 | 00:00:00 | 00:00:00 | |
| KRY50SP | 2026-08-31 00:09:32 | 52.39885 | 21.70789 | 52° | 35km/h | 16826m | 5.9m/s | -54.0°C | 1.5% | 96.2hPa | 0V | 00:00:00 | 00:00:00 | 00:00:00 | |
| KRY50SP | 2026-08-31 00:09:27 | 52.39859 | 21.70739 | 55° | 33km/h | 16798m | 6.1m/s | -53.8°C | 1.4% | 96.6hPa | 0V | 00:00:00 | 00:00:00 | 00:00:00 | |
| SQ9EZE-16 | 2026-08-31 00:09:25 | 52.39849 | 21.70716 | 56° | 33km/h | 16787m | 4.8m/s | 0°C | 0% | 0hPa | 0V | 00:00:00 | 00:00:00 | 00:00:00 | |
| KRY50SP | 2026-08-31 00:09:21 | 52.39827 | 21.70675 | 52° | 31km/h | 16765m | 4.7m/s | -53.6°C | 1.4% | 97.1hPa | 0V | 00:00:00 | 00:00:00 | 00:00:00 | |
| KRY50SP | 2026-08-31 00:09:15 | 52.39797 | 21.70622 | 51° | 29km/h | 16736m | 5.9m/s | -53.8°C | 1.4% | 97.6hPa | 0V | 00:00:00 | 00:00:00 | 00:00:00 | |
| SP4MAZ | 2026-08-31 00:09:11 | 52.39775 | 21.70584 | 53° | 33km/h | 16715m | 5.6m/s | -53.7°C | 1.5% | 98.0hPa | 0V | 00:00:00 | 00:00:00 | 00:00:00 | |
| SQ9EZE-15 | 2026-08-31 00:09:09 | 52.39765 | 21.70562 | 57° | 31km/h | 16704m | 6.2m/s | 0°C | 0% | 0hPa | 0V | 00:00:00 | 00:00:00 | 00:00:00 | |
| KRY50SP | 2026-08-31 00:09:03 | 52.39744 | 21.70499 | 67° | 33km/h | 16671m | 2.8m/s | -53.5°C | 1.5% | 98.6hPa | 0V | 00:00:00 | 00:00:00 | 00:00:00 | |
| KRY50SP | 2026-08-31 00:08:58 | 52.39723 | 21.70443 | 49° | 33km/h | 16644m | 4.0m/s | -53.5°C | 1.4% | 99.0hPa | 0V | 00:00:00 | 00:00:00 | 00:00:00 | |
| SQ9EZE-16 | 2026-08-31 00:08:53 | 52.39698 | 21.70392 | 55° | 29km/h | 16620m | 3.7m/s | 0°C | 0% | 0hPa | 0V | 00:00:00 | 00:00:00 | 00:00:00 | |
| KRY50SP | 2026-08-31 00:08:52 | 52.39694 | 21.70382 | 59° | 29km/h | 16615m | 4.9m/s | -53.4°C | 1.4% | 99.5hPa | 0V | 00:00:00 | 00:00:00 | 00:00:00 | |
| SP4MAZ | 2026-08-31 00:08:51 | 52.39690 | 21.70372 | 52° | 29km/h | 16610m | 4.7m/s | -53.3°C | 1.4% | 99.6hPa | 0V | 00:00:00 | 00:00:00 | 00:00:00 | |
| KRY50SP | 2026-08-31 00:08:48 | 52.39671 | 21.70329 | 57° | 35km/h | 16591m | 3.9m/s | -53.2°C | 1.4% | 99.9hPa | 0V | 00:00:00 | 00:00:00 | 00:00:00 | |
| KRY50SP | 2026-08-31 00:08:41 | 52.39639 | 21.70257 | 59° | 35km/h | 16562m | 4.9m/s | -52.9°C | 1.4% | 100.4hPa | 0V | 00:00:00 | 00:00:00 | 00:00:00 | |
| SQ9EZE-16 | 2026-08-31 00:08:35 | 52.39617 | 21.70183 | 58° | 31km/h | 16531m | 6.5m/s | 0°C | 0% | 0hPa | 0V | 00:00:00 | 00:00:00 | 00:00:00 | |
| SQ9EZE-15 | 2026-08-31 00:08:31 | 52.39596 | 21.70139 | 45° | 38km/h | 16509m | 4.8m/s | 0°C | 0% | 0hPa | 0V | 00:00:00 | 00:00:00 | 00:00:00 | |
| KRY50SP | 2026-08-31 00:08:29 | 52.39587 | 21.70116 | 62° | 37km/h | 16500m | 4.2m/s | -53.3°C | 1.4% | 101.3hPa | 0V | 00:00:00 | 00:00:00 | 00:00:00 | |
| KRY50SP | 2026-08-31 00:08:23 | 52.39562 | 21.70025 | 71° | 37km/h | 16472m | 4.4m/s | -53.1°C | 1.4% | 101.8hPa | 0V | 00:00:00 | 00:00:00 | 00:00:00 | |
| SQ9EZE-16 | 2026-08-31 00:08:19 | 52.39550 | 21.69970 | 69° | 29km/h | 16452m | 5.5m/s | 0°C | 0% | 0hPa | 0V | 00:00:00 | 00:00:00 | 00:00:00 | |
| KRY50SP | 2026-08-31 00:08:17 | 52.39545 | 21.69945 | 71° | 33km/h | 16445m | 5.8m/s | -53.0°C | 1.4% | 102.2hPa | 0V | 00:00:00 | 00:00:00 | 00:00:00 | |
| KRY50SP | 2026-08-31 00:08:11 | 52.39529 | 21.69855 | 80° | 40km/h | 16412m | 6.9m/s | -53.0°C | 1.4% | 102.7hPa | 0V | 00:00:00 | 00:00:00 | 00:00:00 | |
| SP4MAZ | 2026-08-31 00:08:08 | 52.39526 | 21.69808 | 87° | 38km/h | 16395m | 7.6m/s | -52.9°C | 1.4% | 103.0hPa | 0V | 00:00:00 | 00:00:00 | 00:00:00 | |
| KRY50SP | 2026-08-31 00:08:04 | 52.39519 | 21.69747 | 81° | 38km/h | 16371m | 4.5m/s | -52.8°C | 1.4% | 103.4hPa | 0V | 00:00:00 | 00:00:00 | 00:00:00 | |
| KRY50SP | 2026-08-31 00:07:58 | 52.39511 | 21.69647 | 89° | 42km/h | 16341m | 4.1m/s | -52.9°C | 1.4% | 103.8hPa | 0V | 00:00:00 | 00:00:00 | 00:00:00 | |
| KRY50SP | 2026-08-31 00:07:53 | 52.39508 | 21.69571 | 76° | 31km/h | 16314m | 6.8m/s | -52.6°C | 1.4% | 104.3hPa | 0V | 00:00:00 | 00:00:00 | 00:00:00 | |
| KRY50SP | 2026-08-31 00:07:48 | 52.39491 | 21.69497 | 74° | 42km/h | 16285m | 4.6m/s | -52.5°C | 1.4% | 104.7hPa | 0V | 00:00:00 | 00:00:00 | 00:00:00 | |
| KRY50SP | 2026-08-31 00:07:42 | 52.39475 | 21.69400 | 75° | 35km/h | 16255m | 5.9m/s | -52.4°C | 1.4% | 105.2hPa | 0V | 00:00:00 | 00:00:00 | 00:00:00 | |
| KRY50SP | 2026-08-31 00:07:37 | 52.39462 | 21.69339 | 68° | 29km/h | 16230m | 3.8m/s | -52.4°C | 1.4% | 105.6hPa | 0V | 00:00:00 | 00:00:00 | 00:00:00 | |
| KRY50SP | 2026-08-31 00:07:31 | 52.39433 | 21.69274 | 61° | 35km/h | 16196m | 5.1m/s | -52.5°C | 1.5% | 106.1hPa | 0V | 00:00:00 | 00:00:00 | 00:00:00 | |
| KRY50SP | 2026-08-31 00:07:26 | 52.39409 | 21.69206 | 65° | 35km/h | 16175m | 3.2m/s | -52.4°C | 1.4% | 106.5hPa | 0V | 00:00:00 | 00:00:00 | 00:00:00 | |
| KRY50SP | 2026-08-31 00:07:20 | 52.39378 | 21.69133 | 60° | 33km/h | 16147m | 5.3m/s | -52.1°C | 1.4% | 107.0hPa | 0V | 00:00:00 | 00:00:00 | 00:00:00 | |
| SP4MAZ | 2026-08-31 00:07:18 | 52.39364 | 21.69099 | 62° | 29km/h | 16132m | 6.7m/s | -51.9°C | 1.4% | 107.3hPa | 0V | 00:00:00 | 00:00:00 | 00:00:00 | |
| KRY50SP | 2026-08-31 00:07:14 | 52.39352 | 21.69065 | 67° | 33km/h | 16110m | 4.9m/s | -51.9°C | 1.4% | 107.6hPa | 0V | 00:00:00 | 00:00:00 | 00:00:00 | |
| KRY50SP | 2026-08-31 00:07:08 | 52.39332 | 21.68987 | 78° | 26km/h | 16072m | 2.5m/s | -52.5°C | 1.5% | 108.1hPa | 0V | 00:00:00 | 00:00:00 | 00:00:00 | |
| KRY50SP | 2026-08-31 00:07:03 | 52.39321 | 21.68931 | 72° | 35km/h | 16054m | 3.9m/s | -52.5°C | 1.5% | 108.5hPa | 0V | 00:00:00 | 00:00:00 | 00:00:00 | |
| KRY50SP | 2026-08-31 00:06:57 | 52.39302 | 21.68861 | 61° | 29km/h | 16024m | 5.2m/s | -52.4°C | 1.5% | 109.0hPa | 0V | 00:00:00 | 00:00:00 | 00:00:00 | |
| SP4MAZ | 2026-08-31 00:06:53 | 52.39284 | 21.68828 | 43° | 26km/h | 16001m | 4.0m/s | -52.2°C | 1.5% | 109.4hPa | 0V | 00:00:00 | 00:00:00 | 00:00:00 | |
| KRY50SP | 2026-08-31 00:06:51 | 52.39275 | 21.68814 | 49° | 20km/h | 15993m | 6.1m/s | -52.2°C | 1.5% | 109.6hPa | 0V | 00:00:00 | 00:00:00 | 00:00:00 | |
| KRY50SP | 2026-08-31 00:06:45 | 52.39254 | 21.68759 | 67° | 29km/h | 15962m | 5.5m/s | -52.1°C | 1.5% | 110.1hPa | 0V | 00:00:00 | 00:00:00 | 00:00:00 | |
| KRY50SP | 2026-08-31 00:06:40 | 52.39233 | 21.68720 | 33° | 24km/h | 15937m | 4.1m/s | -52.0°C | 1.4% | 110.5hPa | 0V | 00:00:00 | 00:00:00 | 00:00:00 | |
| KRY50SP | 2026-08-31 00:06:35 | 52.39201 | 21.68677 | 50° | 29km/h | 15905m | 4.9m/s | -51.8°C | 1.4% | 111.0hPa | 0V | 00:00:00 | 00:00:00 | 00:00:00 | |
| SP4MAZ | 2026-08-31 00:06:33 | 52.39197 | 21.68668 | 60° | 27km/h | 15899m | 6.3m/s | -51.8°C | 1.5% | 111.1hPa | 0V | 00:00:00 | 00:00:00 | 00:00:00 | |
| KRY50SP | 2026-08-31 00:06:28 | 52.39179 | 21.68623 | 50° | 27km/h | 15868m | 5.4m/s | -52.3°C | 1.5% | 111.6hPa | 0V | 00:00:00 | 00:00:00 | 00:00:00 | |
| KRY50SP | 2026-08-31 00:06:22 | 52.39155 | 21.68563 | 62° | 27km/h | 15839m | 4.9m/s | -52.6°C | 1.6% | 112.1hPa | 0V | 00:00:00 | 00:00:00 | 00:00:00 | |
| KRY50SP | 2026-08-31 00:06:16 | 52.39136 | 21.68495 | 74° | 26km/h | 15807m | 4.0m/s | -52.8°C | 1.6% | 112.7hPa | 0V | 00:00:00 | 00:00:00 | 00:00:00 | |
| SP4MAZ | 2026-08-31 00:06:13 | 52.39128 | 21.68464 | 70° | 31km/h | 15791m | 4.5m/s | -52.8°C | 1.6% | 113.0hPa | 0V | 00:00:00 | 00:00:00 | 00:00:00 | |
| KRY50SP | 2026-08-31 00:06:11 | 52.39123 | 21.68439 | 75° | 33km/h | 15781m | 5.1m/s | -52.8°C | 1.6% | 113.1hPa | 0V | 00:00:00 | 00:00:00 | 00:00:00 | |
| KRY50SP | 2026-08-31 00:06:05 | 52.39106 | 21.68349 | 75° | 40km/h | 15750m | 5.0m/s | -52.6°C | 1.6% | 113.7hPa | 0V | 00:00:00 | 00:00:00 | 00:00:00 | |
| KRY50SP | 2026-08-31 00:06:00 | 52.39090 | 21.68267 | 72° | 44km/h | 15727m | 6.1m/s | -52.4°C | 1.6% | 114.1hPa | 0V | 00:00:00 | 00:00:00 | 00:00:00 | |
| KRY50SP | 2026-08-31 00:05:54 | 52.39069 | 21.68175 | 68° | 38km/h | 15699m | 4.6m/s | -52.2°C | 1.6% | 114.7hPa | 0V | 00:00:00 | 00:00:00 | 00:00:00 | |
| KRY50SP | 2026-08-31 00:05:49 | 52.39048 | 21.68099 | 65° | 44km/h | 15676m | 3.4m/s | -52.3°C | 1.6% | 115.1hPa | 0V | 00:00:00 | 00:00:00 | 00:00:00 | |
| KRY50SP | 2026-08-31 00:05:44 | 52.39025 | 21.68019 | 63° | 42km/h | 15652m | 4.4m/s | -52.5°C | 1.6% | 115.6hPa | 0V | 00:00:00 | 00:00:00 | 00:00:00 | |
| SP4MAZ | 2026-08-31 00:05:42 | 52.39011 | 21.67972 | 69° | 44km/h | 15634m | 5.9m/s | -52.5°C | 1.6% | 115.9hPa | 0V | 00:00:00 | 00:00:00 | 00:00:00 | |
| KRY50SP | 2026-08-31 00:05:39 | 52.38999 | 21.67920 | 79° | 46km/h | 15616m | 7.0m/s | -52.5°C | 1.6% | 116.2hPa | 0V | 00:00:00 | 00:00:00 | 00:00:00 | |
| KRY50SP | 2026-08-31 00:05:32 | 52.38983 | 21.67801 | 78° | 49km/h | 15582m | 4.7m/s | -52.7°C | 1.6% | 116.7hPa | 0V | 00:00:00 | 00:00:00 | 00:00:00 | |
| KRY50SP | 2026-08-31 00:05:27 | 52.38961 | 21.67708 | 72° | 46km/h | 15555m | 5.8m/s | -52.9°C | 1.7% | 117.2hPa | 0V | 00:00:00 | 00:00:00 | 00:00:00 | |
| KRY50SP | 2026-08-31 00:05:22 | 52.38945 | 21.67609 | 79° | 38km/h | 15521m | 5.3m/s | -52.7°C | 1.7% | 117.8hPa | 0V | 00:00:00 | 00:00:00 | 00:00:00 | |
| SP4MAZ | 2026-08-31 00:05:19 | 52.38942 | 21.67580 | 86° | 35km/h | 15510m | 4.5m/s | -52.6°C | 1.7% | 118.0hPa | 0V | 00:00:00 | 00:00:00 | 00:00:00 | |
| KRY50SP | 2026-08-31 00:05:15 | 52.38936 | 21.67531 | 74° | 29km/h | 15489m | 5.5m/s | -52.5°C | 1.7% | 118.4hPa | 0V | 00:00:00 | 00:00:00 | 00:00:00 | |
| KRY50SP | 2026-08-31 00:05:09 | 52.38925 | 21.67447 | 73° | 38km/h | 15461m | 4.9m/s | -52.6°C | 1.7% | 118.9hPa | 0V | 00:00:00 | 00:00:00 | 00:00:00 | |
| KRY50SP | 2026-08-31 00:05:06 | 52.38921 | 21.67379 | 84° | 29km/h | 15435m | 4.3m/s | -52.5°C | 1.7% | 119.4hPa | 0V | 00:00:00 | 00:00:00 | 00:00:00 | |
| KRY50SP | 2026-08-31 00:04:59 | 52.38920 | 21.67293 | 98° | 42km/h | 15401m | 5.1m/s | -52.6°C | 1.7% | 120.0hPa | 0V | 00:00:00 | 00:00:00 | 00:00:00 | |
| KRY50SP | 2026-08-31 00:04:54 | 52.38919 | 21.67208 | 98° | 31km/h | 15377m | 5.6m/s | -53.0°C | 1.8% | 120.4hPa | 0V | 00:00:00 | 00:00:00 | 00:00:00 | |
| KRY50SP | 2026-08-31 00:04:47 | 52.38934 | 21.67130 | 108° | 38km/h | 15342m | 5.6m/s | -53.0°C | 1.8% | 121.0hPa | 0V | 00:00:00 | 00:00:00 | 00:00:00 | |
| KRY50SP | 2026-08-31 00:04:42 | 52.38949 | 21.67027 | 102° | 47km/h | 15311m | 3.8m/s | -52.9°C | 1.9% | 121.6hPa | 0V | 00:00:00 | 00:00:00 | 00:00:00 | |
| KRY50SP | 2026-08-31 00:04:36 | 52.38959 | 21.66916 | 101° | 42km/h | 15280m | 5.5m/s | -52.9°C | 1.9% | 122.1hPa | 0V | 00:00:00 | 00:00:00 | 00:00:00 | |
| KRY50SP | 2026-08-31 00:04:30 | 52.38969 | 21.66816 | 95° | 37km/h | 15250m | 4.2m/s | -52.8°C | 1.9% | 122.7hPa | 0V | 00:00:00 | 00:00:00 | 00:00:00 | |
| SP4MAZ | 2026-08-31 00:04:27 | 52.38972 | 21.66782 | 99° | 40km/h | 15241m | 4.5m/s | -52.8°C | 1.9% | 122.8hPa | 0V | 00:00:00 | 00:00:00 | 00:00:00 | |
| KRY50SP | 2026-08-31 00:04:25 | 52.38972 | 21.66734 | 93° | 38km/h | 15227m | 3.5m/s | -52.8°C | 2.0% | 123.1hPa | 0V | 00:00:00 | 00:00:00 | 00:00:00 | |
| KRY50SP | 2026-08-31 00:04:19 | 52.38975 | 21.66648 | 94° | 44km/h | 15206m | 3.8m/s | -53.0°C | 2.0% | 123.6hPa | 0V | 00:00:00 | 00:00:00 | 00:00:00 | |
| KRY50SP | 2026-08-31 00:04:13 | 52.38979 | 21.66535 | 93° | 46km/h | 15181m | 4.3m/s | -53.6°C | 2.1% | 124.1hPa | 0V | 00:00:00 | 00:00:00 | 00:00:00 | |
| KRY50SP | 2026-08-31 00:04:09 | 52.38979 | 21.66447 | 94° | 44km/h | 15161m | 5.1m/s | -53.9°C | 2.3% | 124.6hPa | 0V | 00:00:00 | 00:00:00 | 00:00:00 | |
| SP4MAZ | 2026-08-31 00:04:08 | 52.38979 | 21.66429 | 93° | 46km/h | 15156m | 3.7m/s | -53.9°C | 2.3% | 124.7hPa | 0V | 00:00:00 | 00:00:00 | 00:00:00 | |
| KRY50SP | 2026-08-31 00:04:03 | 52.38981 | 21.66331 | 95° | 47km/h | 15129m | 3.9m/s | -54.0°C | 2.3% | 125.1hPa | 0V | 00:00:00 | 00:00:00 | 00:00:00 | |
| KRY50SP | 2026-08-31 00:03:57 | 52.38986 | 21.66214 | 93° | 47km/h | 15098m | 4.0m/s | -54.1°C | 2.4% | 125.7hPa | 0V | 00:00:00 | 00:00:00 | 00:00:00 | |
| KRY50SP | 2026-08-31 00:03:52 | 52.38992 | 21.66103 | 93° | 57km/h | 15072m | 4.5m/s | -54.1°C | 2.4% | 126.1hPa | 0V | 00:00:00 | 00:00:00 | 00:00:00 | |
| SP4MAZ | 2026-08-31 00:03:46 | 52.38994 | 21.65982 | 93° | 58km/h | 15047m | 3.9m/s | -54.1°C | 2.4% | 126.7hPa | 0V | 00:00:00 | 00:00:00 | 00:00:00 | |
| KRY50SP | 2026-08-31 00:03:45 | 52.38995 | 21.65958 | 94° | 58km/h | 15043m | 4.1m/s | -54.1°C | 2.4% | 126.7hPa | 0V | 00:00:00 | 00:00:00 | 00:00:00 | |
| KRY50SP | 2026-08-31 00:03:40 | 52.38998 | 21.65806 | 94° | 62km/h | 15016m | 4.9m/s | -54.3°C | 2.5% | 127.3hPa | 0V | 00:00:00 | 00:00:00 | 00:00:00 | |
| KRY50SP | 2026-08-31 00:03:34 | 52.38995 | 21.65654 | 90° | 64km/h | 14990m | 3.4m/s | -54.4°C | 2.5% | 127.8hPa | 0V | 00:00:00 | 00:00:00 | 00:00:00 | |
| KRY50SP | 2026-08-31 00:03:31 | 52.38989 | 21.65526 | 88° | 60km/h | 14969m | 4.4m/s | -54.8°C | 2.5% | 128.3hPa | 0V | 00:00:00 | 00:00:00 | 00:00:00 | |
| SP4MAZ | 2026-08-31 00:03:24 | 52.38986 | 21.65397 | 87° | 64km/h | 14946m | 5.3m/s | -54.8°C | 2.5% | 128.8hPa | 0V | 00:00:00 | 00:00:00 | 00:00:00 | |
| KRY50SP | 2026-08-31 00:03:23 | 52.38986 | 21.65397 | 87° | 64km/h | 14946m | 5.3m/s | -54.8°C | 2.5% | 128.8hPa | 0V | 00:00:00 | 00:00:00 | 00:00:00 | |
| KRY50SP | 2026-08-31 00:03:13 | 52.38962 | 21.65069 | 81° | 71km/h | 14884m | 5.4m/s | -55.4°C | 2.7% | 129.9hPa | 0V | 00:00:00 | 00:00:00 | 00:00:00 | |
| KRY50SP | 2026-08-31 00:03:05 | 52.38938 | 21.64903 | 73° | 64km/h | 14855m | 7.3m/s | -55.6°C | 2.7% | 130.5hPa | 0V | 00:00:00 | 00:00:00 | 00:00:00 | |
| KRY50SP | 2026-08-31 00:02:54 | 52.38608 | 21.63796 | 64° | 55km/h | 14600m | 5.3m/s | -54.7°C | 2.3% | 135.9hPa | 0V | 00:00:00 | 00:00:00 | 00:00:00 | |
| SP4MAZ | 2026-08-31 00:02:47 | 52.38593 | 21.63740 | 67° | 44km/h | 14584m | 5.2m/s | -54.6°C | 2.2% | 136.3hPa | 0V | 00:00:00 | 00:00:00 | 00:00:00 | |
| KRY50SP | 2026-08-31 00:02:44 | 52.38584 | 21.63707 | 68° | 42km/h | 14574m | 5.1m/s | -54.5°C | 2.2% | 136.4hPa | 0V | 00:00:00 | 00:00:00 | 00:00:00 | |
| KRY50SP | 2026-08-31 00:02:24 | 52.38530 | 21.63496 | 69° | 47km/h | 14515m | 6.3m/s | -54.1°C | 2.2% | 137.8hPa | 0V | 00:00:00 | 00:00:00 | 00:00:00 | |
| KRY50SP | 2026-08-31 00:02:19 | 52.38507 | 21.63386 | 71° | 46km/h | 14482m | 5.0m/s | -53.9°C | 2.2% | 138.5hPa | 0V | 00:00:00 | 00:00:00 | 00:00:00 | |
| SP4MAZ | 2026-08-31 00:02:14 | 52.38495 | 21.63331 | 74° | 47km/h | 14467m | 3.8m/s | -53.9°C | 2.2% | 138.8hPa | 0V | 00:00:00 | 00:00:00 | 00:00:00 | |
| KRY50SP | 2026-08-31 00:02:11 | 52.38484 | 21.63278 | 72° | 42km/h | 14452m | 4.6m/s | -53.8°C | 2.2% | 139.0hPa | 0V | 00:00:00 | 00:00:00 | 00:00:00 | |
| KRY50SP | 2026-08-31 00:02:02 | 52.38467 | 21.63181 | 80° | 38km/h | 14421m | 5.8m/s | -53.6°C | 2.2% | 139.7hPa | 0V | 00:00:00 | 00:00:00 | 00:00:00 | |
| KRY50SP | 2026-08-31 00:01:52 | 52.38454 | 21.63101 | 76° | 37km/h | 14398m | 4.8m/s | -53.5°C | 2.1% | 140.2hPa | 0V | 00:00:00 | 00:00:00 | 00:00:00 | |
| KRY50SP | 2026-08-31 00:01:43 | 52.38445 | 21.62993 | 93° | 51km/h | 14366m | 6.9m/s | -53.4°C | 2.1% | 141.0hPa | 0V | 00:00:00 | 00:00:00 | 00:00:00 | |
| SP4MAZ | 2026-08-31 00:01:41 | 52.38445 | 21.62972 | 90° | 47km/h | 14359m | 3.8m/s | -53.4°C | 2.1% | 141.1hPa | 0V | 00:00:00 | 00:00:00 | 00:00:00 | |
| KRY50SP | 2026-08-31 00:01:34 | 52.38442 | 21.62880 | 90° | 44km/h | 14334m | 4.3m/s | -53.7°C | 2.1% | 141.7hPa | 0V | 00:00:00 | 00:00:00 | 00:00:00 | |
| KRY50SP | 2026-08-31 00:01:27 | 52.38441 | 21.62787 | 95° | 47km/h | 14309m | 4.2m/s | -53.7°C | 2.1% | 142.2hPa | 0V | 00:00:00 | 00:00:00 | 00:00:00 | |
| KRY50SP | 2026-08-31 00:01:20 | 52.38445 | 21.62671 | 96° | 51km/h | 14278m | 5.7m/s | -53.6°C | 2.1% | 142.9hPa | 0V | 00:00:00 | 00:00:00 | 00:00:00 | |
| KRY50SP | 2026-08-31 00:01:13 | 52.38452 | 21.62558 | 92° | 55km/h | 14256m | 5.1m/s | -53.5°C | 2.1% | 143.4hPa | 0V | 00:00:00 | 00:00:00 | 00:00:00 | |
| SP4MAZ | 2026-08-31 00:00:59 | 52.38442 | 21.62319 | 93° | 51km/h | 14203m | 4.5m/s | -53.6°C | 2.1% | 144.6hPa | 0V | 00:00:00 | 00:00:00 | 00:00:00 | |
| KRY50SP | 2026-08-31 00:00:58 | 52.38443 | 21.62298 | 93° | 49km/h | 14198m | 5.2m/s | -53.7°C | 2.1% | 144.7hPa | 0V | 00:00:00 | 00:00:00 | 00:00:00 | |
| KRY50SP | 2026-08-31 00:00:50 | 52.38438 | 21.62177 | 86° | 49km/h | 14170m | 3.8m/s | -53.6°C | 2.1% | 145.4hPa | 0V | 00:00:00 | 00:00:00 | 00:00:00 | |
| KRY50SP | 2026-08-31 00:00:45 | 52.38433 | 21.62084 | 94° | 46km/h | 14148m | 3.7m/s | -53.5°C | 2.1% | 145.8hPa | 0V | 00:00:00 | 00:00:00 | 00:00:00 | |
| KRY50SP | 2026-08-31 00:00:43 | 52.38433 | 21.61991 | 86° | 47km/h | 14122m | 5.2m/s | -53.5°C | 2.1% | 146.4hPa | 0V | 00:00:00 | 00:00:00 | 00:00:00 | |
| SP4MAZ | 2026-08-31 00:00:39 | 52.38427 | 21.61928 | 86° | 51km/h | 14107m | 5.1m/s | -53.5°C | 2.1% | 146.7hPa | 0V | 00:00:00 | 00:00:00 | 00:00:00 | |
| KRY50SP | 2026-08-31 00:00:35 | 52.38421 | 21.61866 | 83° | 55km/h | 14094m | 5.1m/s | -53.5°C | 2.1% | 147.0hPa | 0V | 00:00:00 | 00:00:00 | 00:00:00 | |
| KRY50SP | 2026-08-31 00:00:31 | 52.38415 | 21.61763 | 87° | 49km/h | 14071m | 4.1m/s | -53.7°C | 2.2% | 147.6hPa | 0V | 00:00:00 | 00:00:00 | 00:00:00 | |
| KRY50SP | 2026-08-31 00:00:27 | 52.38409 | 21.61639 | 85° | 49km/h | 14044m | 5.3m/s | -53.7°C | 2.2% | 148.2hPa | 0V | 00:00:00 | 00:00:00 | 00:00:00 | |
| KRY50SP | 2026-08-31 00:00:20 | 52.38399 | 21.61538 | 79° | 47km/h | 14019m | 4.6m/s | -53.5°C | 2.2% | 148.7hPa | 0V | 00:00:00 | 00:00:00 | 00:00:00 | |
| SP4MAZ | 2026-08-31 00:00:14 | 52.38389 | 21.61482 | 77° | 47km/h | 14005m | 3.7m/s | -53.4°C | 2.2% | 149.1hPa | 0V | 00:00:00 | 00:00:00 | 00:00:00 | |
| KRY50SP | 2026-08-31 00:00:13 | 52.38380 | 21.61428 | 79° | 46km/h | 13991m | 4.2m/s | -53.3°C | 2.2% | 149.4hPa | 0V | 00:00:00 | 00:00:00 | 00:00:00 | |
| KRY50SP | 2026-08-31 00:00:10 | 52.38371 | 21.61336 | 85° | 44km/h | 13967m | 3.1m/s | -53.2°C | 2.2% | 149.9hPa | 0V | 00:00:00 | 00:00:00 | 00:00:00 | |
| KRY50SP | 2026-08-31 00:00:00 | 52.38367 | 21.61248 | 87° | 42km/h | 13946m | 4.9m/s | -53.1°C | 2.1% | 150.4hPa | 0V | 00:00:00 | 00:00:00 | 00:00:00 | |
| KRY50SP | 2026-08-30 23:59:55 | 52.38359 | 21.61165 | 80° | 42km/h | 13926m | 6.2m/s | -53.1°C | 2.2% | 151.1hPa | 0V | 00:00:00 | 00:00:00 | 00:00:00 | |
| KRY50SP | 2026-08-30 23:59:50 | 52.38354 | 21.61082 | 87° | 40km/h | 13902m | 5.2m/s | -52.9°C | 2.2% | 151.6hPa | 0V | 00:00:00 | 00:00:00 | 00:00:00 | |
| KRY50SP | 2026-08-30 23:59:44 | 52.38351 | 21.60982 | 91° | 42km/h | 13874m | 3.4m/s | -52.7°C | 2.2% | 152.2hPa | 0V | 00:00:00 | 00:00:00 | 00:00:00 | |
| SP4MAZ | 2026-08-30 23:59:41 | 52.38351 | 21.60929 | 92° | 46km/h | 13859m | 4.6m/s | -52.7°C | 2.2% | 152.6hPa | 0V | 00:00:00 | 00:00:00 | 00:00:00 | |
| KRY50SP | 2026-08-30 23:59:38 | 52.38352 | 21.60872 | 94° | 46km/h | 13845m | 5.8m/s | -52.6°C | 2.2% | 152.9hPa | 0V | 00:00:00 | 00:00:00 | 00:00:00 | |
| KRY50SP | 2026-08-30 23:59:33 | 52.38351 | 21.60777 | 90° | 46km/h | 13824m | 5.4m/s | -52.5°C | 2.2% | 153.4hPa | 0V | 00:00:00 | 00:00:00 | 00:00:00 | |
| KRY50SP | 2026-08-30 23:59:27 | 52.38346 | 21.60671 | 87° | 40km/h | 13798m | 3.8m/s | -52.5°C | 2.2% | 154.0hPa | 0V | 00:00:00 | 00:00:00 | 00:00:00 | |
| KRY50SP | 2026-08-30 23:59:22 | 52.38345 | 21.60594 | 90° | 38km/h | 13772m | 5.1m/s | -52.5°C | 2.2% | 154.6hPa | 0V | 00:00:00 | 00:00:00 | 00:00:00 | |
| SP4MAZ | 2026-08-30 23:59:20 | 52.38343 | 21.60562 | 88° | 42km/h | 13762m | 4.5m/s | -52.5°C | 0% | 154.8hPa | 0V | 00:00:00 | 00:00:00 | 00:00:00 | |
| KRY50SP | 2026-08-30 23:59:16 | 52.38338 | 21.60495 | 82° | 44km/h | 13743m | 4.4m/s | -52.4°C | 2.2% | 155.3hPa | 0V | 00:00:00 | 00:00:00 | 00:00:00 | |
| KRY50SP | 2026-08-30 23:59:11 | 52.38334 | 21.60402 | 90° | 47km/h | 13724m | 4.7m/s | -52.4°C | 2.2% | 155.8hPa | 0V | 00:00:00 | 00:00:00 | 00:00:00 | |
| KRY50SP | 2026-08-30 23:59:05 | 52.38330 | 21.60280 | 90° | 46km/h | 13697m | 4.3m/s | -52.4°C | 2.2% | 156.5hPa | 0V | 00:00:00 | 00:00:00 | 00:00:00 | |
| KRY50SP | 2026-08-30 23:59:00 | 52.38324 | 21.60181 | 85° | 51km/h | 13673m | 5.9m/s | -52.2°C | 2.2% | 157.0hPa | 0V | 00:00:00 | 00:00:00 | 00:00:00 | |
| KRY50SP | 2026-08-30 23:58:54 | 52.38317 | 21.60047 | 90° | 60km/h | 13640m | 5.4m/s | -52.0°C | 2.3% | 157.8hPa | 0V | 00:00:00 | 00:00:00 | 00:00:00 | |
| KRY50SP | 2026-08-30 23:58:49 | 52.38311 | 21.59929 | 85° | 53km/h | 13617m | 4.2m/s | -52.1°C | 2.3% | 158.3hPa | 0V | 00:00:00 | 00:00:00 | 00:00:00 | |
| KRY50SP | 2026-08-30 23:58:44 | 52.38312 | 21.59813 | 90° | 62km/h | 13593m | 4.7m/s | -52.3°C | 2.3% | 158.9hPa | 0V | 00:00:00 | 00:00:00 | 00:00:00 | |
| KRY50SP | 2026-08-30 23:58:38 | 52.38307 | 21.59644 | 87° | 71km/h | 13564m | 3.9m/s | -52.5°C | 2.4% | 159.6hPa | 0V | 00:00:00 | 00:00:00 | 00:00:00 | |
| KRY50SP | 2026-08-30 23:58:31 | 52.38298 | 21.59447 | 84° | 62km/h | 13534m | 4.1m/s | -52.4°C | 2.5% | 160.5hPa | 0V | 00:00:00 | 00:00:00 | 00:00:00 | |
| SP4MAZ | 2026-08-30 23:58:28 | 52.38292 | 21.59341 | 87° | 64km/h | 13516m | 5.5m/s | -52.4°C | 0% | 161.0hPa | 0V | 00:00:00 | 00:00:00 | 00:00:00 | |
| KRY50SP | 2026-08-30 23:58:26 | 52.38292 | 21.59315 | 88° | 66km/h | 13510m | 3.5m/s | -52.4°C | 2.5% | 161.1hPa | 0V | 00:00:00 | 00:00:00 | 00:00:00 | |
| KRY50SP | 2026-08-30 23:58:20 | 52.38288 | 21.59155 | 86° | 64km/h | 13479m | 5.7m/s | -52.3°C | 2.5% | 161.8hPa | 0V | 00:00:00 | 00:00:00 | 00:00:00 | |
| KRY50SP | 2026-08-30 23:58:15 | 52.38285 | 21.59032 | 87° | 57km/h | 13456m | 6.1m/s | -52.2°C | 2.5% | 162.4hPa | 0V | 00:00:00 | 00:00:00 | 00:00:00 | |
| KRY50SP | 2026-08-30 23:58:09 | 52.38273 | 21.58899 | 81° | 55km/h | 13423m | 4.9m/s | -52.1°C | 2.5% | 163.2hPa | 0V | 00:00:00 | 00:00:00 | 00:00:00 | |
| KRY50SP | 2026-08-30 23:58:03 | 52.38261 | 21.58769 | 82° | 53km/h | 13395m | 5.1m/s | -51.9°C | 2.5% | 163.9hPa | 0V | 00:00:00 | 00:00:00 | 00:00:00 | |
| KRY50SP | 2026-08-30 23:57:58 | 52.38248 | 21.58668 | 78° | 44km/h | 13372m | 3.7m/s | -52.0°C | 2.5% | 164.5hPa | 0V | 00:00:00 | 00:00:00 | 00:00:00 | |
| SP4MAZ | 2026-08-30 23:57:56 | 52.38244 | 21.58633 | 83° | 46km/h | 13364m | 4.8m/s | -51.9°C | 2.6% | 164.8hPa | 0V | 00:00:00 | 00:00:00 | 00:00:00 | |
| KRY50SP | 2026-08-30 23:57:51 | 52.38242 | 21.58536 | 98° | 57km/h | 13339m | 5.3m/s | -51.8°C | 2.6% | 165.4hPa | 0V | 00:00:00 | 00:00:00 | 00:00:00 | |
| KRY50SP | 2026-08-30 23:57:45 | 52.38245 | 21.58406 | 87° | 55km/h | 13310m | 5.6m/s | -51.6°C | 2.6% | 166.1hPa | 0V | 00:00:00 | 00:00:00 | 00:00:00 | |
| KRY50SP | 2026-08-30 23:57:39 | 52.38240 | 21.58278 | 90° | 51km/h | 13280m | 4.3m/s | -51.6°C | 2.5% | 166.9hPa | 0V | 00:00:00 | 00:00:00 | 00:00:00 | |
| SP4MAZ | 2026-08-30 23:57:36 | 52.38240 | 21.58216 | 99° | 55km/h | 13265m | 4.8m/s | -51.7°C | 2.5% | 167.3hPa | 0V | 00:00:00 | 00:00:00 | 00:00:00 | |
| KRY50SP | 2026-08-30 23:57:33 | 52.38243 | 21.58145 | 99° | 64km/h | 13245m | 5.7m/s | -51.5°C | 2.6% | 167.7hPa | 0V | 00:00:00 | 00:00:00 | 00:00:00 | |
| KRY50SP | 2026-08-30 23:57:27 | 52.38256 | 21.57990 | 106° | 51km/h | 13212m | 5.2m/s | -51.5°C | 2.6% | 168.5hPa | 0V | 00:00:00 | 00:00:00 | 00:00:00 | |
| KRY50SP | 2026-08-30 23:57:19 | 52.38273 | 21.57817 | 89° | 66km/h | 13172m | 6.7m/s | -51.6°C | 2.8% | 169.6hPa | 0V | 00:00:00 | 00:00:00 | 00:00:00 | |
| KRY50SP | 2026-08-30 23:57:14 | 52.38281 | 21.57681 | 100° | 68km/h | 13144m | 9.0m/s | -51.7°C | 2.7% | 170.3hPa | 0V | 00:00:00 | 00:00:00 | 00:00:00 | |
| SP4MAZ | 2026-08-30 23:57:11 | 52.38289 | 21.57593 | 99° | 73km/h | 13126m | 7.0m/s | -51.8°C | 0% | 170.8hPa | 0V | 00:00:00 | 00:00:00 | 00:00:00 | |
| KRY50SP | 2026-08-30 23:57:07 | 52.38298 | 21.57472 | 96° | 75km/h | 13104m | 5.6m/s | -51.9°C | 2.9% | 171.4hPa | 0V | 00:00:00 | 00:00:00 | 00:00:00 | |
| KRY50SP | 2026-08-30 23:56:59 | 52.38307 | 21.57227 | 92° | 75km/h | 13063m | 4.7m/s | -51.9°C | 3.1% | 172.5hPa | 0V | 00:00:00 | 00:00:00 | 00:00:00 | |
| KRY50SP | 2026-08-30 23:56:53 | 52.38309 | 21.57036 | 92° | 77km/h | 13033m | 5.6m/s | -52.0°C | 3.2% | 173.4hPa | 0V | 00:00:00 | 00:00:00 | 00:00:00 | |
| SP4MAZ | 2026-08-30 23:56:49 | 52.38309 | 21.56903 | 92° | 82km/h | 13015m | 4.3m/s | -52.3°C | 0% | 173.9hPa | 0V | 00:00:00 | 00:00:00 | 00:00:00 | |
| KRY50SP | 2026-08-30 23:56:46 | 52.38312 | 21.56807 | 94° | 77km/h | 12999m | 5.6m/s | -52.5°C | 3.3% | 174.2hPa | 0V | 00:00:00 | 00:00:00 | 00:00:00 | |
| KRY50SP | 2026-08-30 23:56:39 | 52.38312 | 21.56573 | 88° | 80km/h | 12963m | 5.5m/s | -52.6°C | 3.5% | 175.1hPa | 0V | 00:00:00 | 00:00:00 | 00:00:00 | |
| KRY50SP | 2026-08-30 23:56:32 | 52.38308 | 21.56341 | 90° | 82km/h | 12928m | 5.6m/s | -52.6°C | 3.6% | 176.1hPa | 0V | 00:00:00 | 00:00:00 | 00:00:00 | |
| SP4MAZ | 2026-08-30 23:56:28 | 52.38301 | 21.56206 | 86° | 80km/h | 12908m | 4.3m/s | -52.7°C | 0% | 176.6hPa | 0V | 00:00:00 | 00:00:00 | 00:00:00 | |
| KRY50SP | 2026-08-30 23:56:26 | 52.38297 | 21.56139 | 85° | 78km/h | 12899m | 4.2m/s | -52.7°C | 3.9% | 176.9hPa | 0V | 00:00:00 | 00:00:00 | 00:00:00 | |
| KRY50SP | 2026-08-30 23:56:18 | 52.38285 | 21.55890 | 87° | 77km/h | 12860m | 5.0m/s | -53.2°C | 4.2% | 177.9hPa | 0V | 00:00:00 | 00:00:00 | 00:00:00 | |
| KRY50SP | 2026-08-30 23:56:12 | 52.38268 | 21.55697 | 78° | 80km/h | 12833m | 3.5m/s | -53.2°C | 4.3% | 178.7hPa | 0V | 00:00:00 | 00:00:00 | 00:00:00 | |
| KRY50SP | 2026-08-30 23:56:06 | 52.38242 | 21.55512 | 79° | 73km/h | 12804m | 5.2m/s | -53.1°C | 4.4% | 179.5hPa | 0V | 00:00:00 | 00:00:00 | 00:00:00 | |
| KRY50SP | 2026-08-30 23:56:01 | 52.38223 | 21.55368 | 80° | 69km/h | 12778m | 4.9m/s | -52.9°C | 4.5% | 180.2hPa | 0V | 00:00:00 | 00:00:00 | 00:00:00 | |
| SP4MAZ | 2026-08-30 23:55:56 | 52.38208 | 21.55227 | 85° | 68km/h | 12750m | 6.1m/s | 0°C | 0% | 180.9hPa | 0V | 00:00:00 | 00:00:00 | 00:00:00 | |
| KRY50SP | 2026-08-30 23:55:51 | 52.38197 | 21.55088 | 83° | 64km/h | 12728m | 4.9m/s | -52.7°C | 4.9% | 181.6hPa | 0V | 00:00:00 | 00:00:00 | 00:00:00 | |
| KRY50SP | 2026-08-30 23:55:45 | 52.38183 | 21.54926 | 81° | 68km/h | 12701m | 5.6m/s | -52.5°C | 4.9% | 182.3hPa | 0V | 00:00:00 | 00:00:00 | 00:00:00 | |
| KRY50SP | 2026-08-30 23:55:39 | 52.38175 | 21.54770 | 91° | 68km/h | 12670m | 5.3m/s | -52.4°C | 5.2% | 183.3hPa | 0V | 00:00:00 | 00:00:00 | 00:00:00 | |
| KRY50SP | 2026-08-30 23:55:34 | 52.38174 | 21.54631 | 94° | 66km/h | 12649m | 6.3m/s | -52.3°C | 5.3% | 183.9hPa | 0V | 00:00:00 | 00:00:00 | 00:00:00 | |
| KRY50SP | 2026-08-30 23:55:28 | 52.38178 | 21.54469 | 92° | 66km/h | 12619m | 4.5m/s | -52.3°C | 5.5% | 184.8hPa | 0V | 00:00:00 | 00:00:00 | 00:00:00 | |
| KRY50SP | 2026-08-30 23:55:23 | 52.38180 | 21.54327 | 94° | 68km/h | 12592m | 4.8m/s | -52.4°C | 5.7% | 185.5hPa | 0V | 00:00:00 | 00:00:00 | 00:00:00 | |
| KRY50SP | 2026-08-30 23:55:17 | 52.38185 | 21.54161 | 95° | 68km/h | 12563m | 5.3m/s | -52.9°C | 5.9% | 186.3hPa | 0V | 00:00:00 | 00:00:00 | 00:00:00 | |
| KRY50SP | 2026-08-30 23:55:11 | 52.38203 | 21.53992 | 100° | 73km/h | 12536m | 5.7m/s | -53.1°C | 6.1% | 187.1hPa | 0V | 00:00:00 | 00:00:00 | 00:00:00 | |
| KRY50SP | 2026-08-30 23:55:06 | 52.38218 | 21.53837 | 100° | 77km/h | 12511m | 4.8m/s | -53.2°C | 6.4% | 187.9hPa | 0V | 00:00:00 | 00:00:00 | 00:00:00 | |
| SP4MAZ | 2026-08-30 23:55:03 | 52.38225 | 21.53739 | 97° | 80km/h | 12495m | 3.6m/s | 0°C | 0% | 188.3hPa | 0V | 00:00:00 | 00:00:00 | 00:00:00 | |
| KRY50SP | 2026-08-30 23:55:00 | 52.38234 | 21.53643 | 100° | 78km/h | 12482m | 3.4m/s | -53.5°C | 6.8% | 188.7hPa | 0V | 00:00:00 | 00:00:00 | 00:00:00 | |
| KRY50SP | 2026-08-30 23:54:55 | 52.38251 | 21.53460 | 99° | 93km/h | 12457m | 3.9m/s | -53.7°C | 7.3% | 189.4hPa | 0V | 00:00:00 | 00:00:00 | 00:00:00 | |
| KRY50SP | 2026-08-30 23:54:50 | 52.38261 | 21.53276 | 95° | 88km/h | 12434m | 4.4m/s | -53.8°C | 7.6% | 190.1hPa | 0V | 00:00:00 | 00:00:00 | 00:00:00 | |
| KRY50SP | 2026-08-30 23:54:44 | 52.38278 | 21.53062 | 98° | 88km/h | 12404m | 6.3m/s | -54.0°C | 8.0% | 191.0hPa | 0V | 00:00:00 | 00:00:00 | 00:00:00 | |
| SP4MAZ | 2026-08-30 23:54:43 | 52.38280 | 21.53026 | 99° | 89km/h | 12399m | 4.7m/s | 0°C | 0% | 191.2hPa | 0V | 00:00:00 | 00:00:00 | 00:00:00 | |
| KRY50SP | 2026-08-30 23:54:39 | 52.38288 | 21.52877 | 97° | 88km/h | 12376m | 4.2m/s | -53.9°C | 8.2% | 191.7hPa | 0V | 00:00:00 | 00:00:00 | 00:00:00 | |
| KRY50SP | 2026-08-30 23:54:33 | 52.38296 | 21.52667 | 99° | 86km/h | 12350m | 3.9m/s | -54.0°C | 8.7% | 192.5hPa | 0V | 00:00:00 | 00:00:00 | 00:00:00 | |
| KRY50SP | 2026-08-30 23:54:27 | 52.38316 | 21.52458 | 98° | 86km/h | 12324m | 4.0m/s | -54.1°C | 9.2% | 193.4hPa | 0V | 00:00:00 | 00:00:00 | 00:00:00 | |
| KRY50SP | 2026-08-30 23:54:22 | 52.38330 | 21.52290 | 100° | 82km/h | 12303m | 4.5m/s | -54.2°C | 9.5% | 194.1hPa | 0V | 00:00:00 | 00:00:00 | 00:00:00 | |
| SP4MAZ | 2026-08-30 23:54:20 | 52.38343 | 21.52187 | 104° | 88km/h | 12288m | 5.3m/s | -54.3°C | 0% | 194.5hPa | 0V | 00:00:00 | 00:00:00 | 00:00:00 | |
| KRY50SP | 2026-08-30 23:54:16 | 52.38360 | 21.52077 | 104° | 93km/h | 12277m | 5.3m/s | -54.4°C | 10.0% | 194.9hPa | 0V | 00:00:00 | 00:00:00 | 00:00:00 | |
| KRY50SP | 2026-08-30 23:54:10 | 52.38386 | 21.51865 | 98° | 82km/h | 12248m | 4.4m/s | -54.6°C | 10.7% | 195.7hPa | 0V | 00:00:00 | 00:00:00 | 00:00:00 | |
| KRY50SP | 2026-08-30 23:54:04 | 52.38403 | 21.51656 | 100° | 89km/h | 12220m | 6.1m/s | -54.6°C | 11.4% | 196.6hPa | 0V | 00:00:00 | 00:00:00 | 00:00:00 | |
| SP4MAZ | 2026-08-30 23:53:59 | 52.38423 | 21.51439 | 96° | 88km/h | 12191m | 4.2m/s | -54.7°C | 0% | 197.4hPa | 0V | 00:00:00 | 00:00:00 | 00:00:00 | |
| KRY50SP | 2026-08-30 23:53:58 | 52.38423 | 21.51439 | 96° | 88km/h | 12191m | 4.2m/s | -54.7°C | 12.1% | 197.4hPa | 0V | 00:00:00 | 00:00:00 | 00:00:00 | |
| KRY50SP | 2026-08-30 23:53:53 | 52.38435 | 21.51260 | 98° | 91km/h | 12167m | 3.6m/s | -54.7°C | 13.0% | 198.1hPa | 0V | 00:00:00 | 00:00:00 | 00:00:00 | |
| KRY50SP | 2026-08-30 23:53:47 | 52.38448 | 21.51031 | 97° | 93km/h | 12141m | 3.8m/s | -55.1°C | 14.6% | 199.0hPa | 0V | 00:00:00 | 00:00:00 | 00:00:00 | |
| KRY50SP | 2026-08-30 23:53:43 | 52.38463 | 21.50840 | 101° | 95km/h | 12118m | 4.6m/s | -55.2°C | 16.2% | 199.7hPa | 0V | 00:00:00 | 00:00:00 | 00:00:00 | |
| KRY50SP | 2026-08-30 23:53:37 | 52.38478 | 21.50642 | 97° | 95km/h | 12097m | 5.5m/s | -55.4°C | 18.0% | 200.5hPa | 0V | 00:00:00 | 00:00:00 | 00:00:00 | |
| KRY50SP | 2026-08-30 23:53:31 | 52.38490 | 21.50410 | 96° | 93km/h | 12068m | 4.4m/s | -55.6°C | 20.5% | 201.3hPa | 0V | 00:00:00 | 00:00:00 | 00:00:00 | |
| KRY50SP | 2026-08-30 23:53:27 | 52.38501 | 21.50226 | 97° | 89km/h | 12045m | 4.1m/s | -56.3°C | 24.2% | 202.1hPa | 0V | 00:00:00 | 00:00:00 | 00:00:00 | |
| KRY50SP | 2026-08-30 23:53:20 | 52.38519 | 21.50004 | 100° | 91km/h | 12016m | 5.4m/s | -56.7°C | 28.0% | 203.0hPa | 0V | 00:00:00 | 00:00:00 | 00:00:00 | |
| KRY50SP | 2026-08-30 23:53:14 | 52.38538 | 21.49782 | 99° | 89km/h | 11987m | 4.1m/s | -57.4°C | 32.4% | 203.8hPa | 0V | 00:00:00 | 00:00:00 | 00:00:00 | |
| KRY50SP | 2026-08-30 23:53:08 | 52.38560 | 21.49564 | 101° | 93km/h | 11960m | 4.4m/s | -57.5°C | 35.8% | 204.8hPa | 0V | 00:00:00 | 00:00:00 | 00:00:00 | |
| SP4MAZ | 2026-08-30 23:53:06 | 52.38569 | 21.49489 | 100° | 91km/h | 11950m | 5.4m/s | 0°C | 0% | 205.1hPa | 0V | 00:00:00 | 00:00:00 | 00:00:00 | |
| KRY50SP | 2026-08-30 23:53:03 | 52.38578 | 21.49378 | 96° | 89km/h | 11935m | 3.8m/s | -57.9°C | 38.8% | 205.5hPa | 0V | 00:00:00 | 00:00:00 | 00:00:00 | |
| KRY50SP | 2026-08-30 23:52:57 | 52.38590 | 21.49164 | 99° | 84km/h | 11908m | 6.2m/s | -58.5°C | 42.9% | 206.4hPa | 0V | 00:00:00 | 00:00:00 | 00:00:00 | |
| KRY50SP | 2026-08-30 23:52:50 | 52.38638 | 21.48900 | 106° | 93km/h | 11878m | 5.8m/s | -58.6°C | 43.6% | 207.4hPa | 0V | 00:00:00 | 00:00:00 | 00:00:00 | |
| SP4MAZ | 2026-08-30 23:52:46 | 52.38659 | 21.48756 | 101° | 82km/h | 11849m | 4.5m/s | 0°C | 0% | 208.3hPa | 0V | 00:00:00 | 00:00:00 | 00:00:00 | |
| KRY50SP | 2026-08-30 23:52:43 | 52.38675 | 21.48651 | 108° | 88km/h | 11834m | 4.3m/s | -58.6°C | 44.5% | 208.8hPa | 0V | 00:00:00 | 00:00:00 | 00:00:00 | |
| KRY50SP | 2026-08-30 23:52:38 | 52.38707 | 21.48467 | 107° | 97km/h | 11816m | 5.3m/s | -58.7°C | 45.8% | 209.5hPa | 0V | 00:00:00 | 00:00:00 | 00:00:00 | |
| KRY50SP | 2026-08-30 23:52:32 | 52.38750 | 21.48239 | 110° | 95km/h | 11788m | 5.4m/s | -58.5°C | 46.6% | 210.5hPa | 0V | 00:00:00 | 00:00:00 | 00:00:00 | |
| KRY50SP | 2026-08-30 23:52:27 | 52.38794 | 21.48020 | 112° | 95km/h | 11759m | 5.7m/s | -58.6°C | 49.0% | 211.4hPa | 0V | 00:00:00 | 00:00:00 | 00:00:00 | |
| SP4MAZ | 2026-08-30 23:52:23 | 52.38819 | 21.47908 | 109° | 99km/h | 11740m | 4.7m/s | -58.6°C | 0% | 211.9hPa | 0V | 00:00:00 | 00:00:00 | 00:00:00 | |
| SP4MAZ | 2026-08-30 23:51:51 | 52.39137 | 21.46606 | 121° | 117km/h | 11575m | 7.9m/s | 0°C | 0% | 217.7hPa | 0V | 00:00:00 | 00:00:00 | 00:00:00 | |
| SP4MAZ | 2026-08-30 23:51:31 | 52.39340 | 21.45723 | 107° | 113km/h | 11448m | 7.5m/s | 0°C | 0% | 222.0hPa | 0V | 00:00:00 | 00:00:00 | 00:00:00 | |
| SP4MAZ | 2026-08-30 23:51:10 | 52.39530 | 21.44723 | 111° | 115km/h | 11348m | 3.3m/s | 0°C | 0% | 225.9hPa | 0V | 00:00:00 | 00:00:00 | 00:00:00 | |
| KRY50SP | 2026-08-30 23:50:55 | 52.39676 | 21.44023 | 109° | 124km/h | 11265m | 4.5m/s | -55.0°C | 45.9% | 228.3hPa | 0V | 00:00:00 | 00:00:00 | 00:00:00 | |
| SP4MAZ | 2026-08-30 23:50:50 | 52.39730 | 21.43784 | 110° | 122km/h | 11243m | 5.3m/s | 0°C | 0% | 229.3hPa | 0V | 00:00:00 | 00:00:00 | 00:00:00 | |
| KRY50SP | 2026-08-30 23:50:48 | 52.39759 | 21.43643 | 109° | 124km/h | 11228m | 4.8m/s | -54.7°C | 45.0% | 229.7hPa | 0V | 00:00:00 | 00:00:00 | 00:00:00 | |
| KRY50SP | 2026-08-30 23:50:41 | 52.39819 | 21.43315 | 107° | 117km/h | 11190m | 4.3m/s | -54.5°C | 45.9% | 231.0hPa | 0V | 00:00:00 | 00:00:00 | 00:00:00 | |
| KRY50SP | 2026-08-30 23:50:35 | 52.39864 | 21.43081 | 109° | 120km/h | 11166m | 4.0m/s | -54.3°C | 47.1% | 231.8hPa | 0V | 00:00:00 | 00:00:00 | 00:00:00 | |
| KRY50SP | 2026-08-30 23:50:29 | 52.39935 | 21.42753 | 110° | 117km/h | 11132m | 4.7m/s | -54.0°C | 48.0% | 233.1hPa | 0V | 00:00:00 | 00:00:00 | 00:00:00 | |
| KRY50SP | 2026-08-30 23:50:15 | 52.40052 | 21.42164 | 109° | 115km/h | 11075m | 6.0m/s | -53.6°C | 50.6% | 235.5hPa | 0V | 00:00:00 | 00:00:00 | 00:00:00 | |
| SP4MAZ | 2026-08-30 23:50:14 | 52.40062 | 21.42118 | 109° | 115km/h | 11069m | 4.6m/s | 0°C | 0% | 235.7hPa | 0V | 00:00:00 | 00:00:00 | 00:00:00 | |
| KRY50SP | 2026-08-30 23:50:09 | 52.40109 | 21.41894 | 108° | 117km/h | 11044m | 3.8m/s | -53.4°C | 53.0% | 236.6hPa | 0V | 00:00:00 | 00:00:00 | 00:00:00 | |
| KRY50SP | 2026-08-30 23:50:04 | 52.40149 | 21.41670 | 108° | 111km/h | 11015m | 6.0m/s | -53.2°C | 53.9% | 237.6hPa | 0V | 00:00:00 | 00:00:00 | 00:00:00 | |
| KRY50SP | 2026-08-30 23:49:59 | 52.40189 | 21.41449 | 108° | 111km/h | 10988m | 5.7m/s | -53.0°C | 54.4% | 238.5hPa | 0V | 00:00:00 | 00:00:00 | 00:00:00 | |
| KRY50SP | 2026-08-30 23:49:53 | 52.40238 | 21.41189 | 109° | 111km/h | 10960m | 3.8m/s | -52.8°C | 0% | 239.6hPa | 0V | 00:00:00 | 00:00:00 | 00:00:00 | |
| KRY50SP | 2026-08-30 23:49:48 | 52.40282 | 21.40968 | 109° | 113km/h | 10935m | 5.8m/s | -52.6°C | 0% | 240.5hPa | 0V | 00:00:00 | 00:00:00 | 00:00:00 | |
| KRY50SP | 2026-08-30 23:49:42 | 52.40333 | 21.40707 | 108° | 110km/h | 10903m | 5.0m/s | -52.4°C | 0% | 241.7hPa | 0V | 00:00:00 | 00:00:00 | 00:00:00 | |
| KRY50SP | 2026-08-30 23:49:35 | 52.40391 | 21.40403 | 109° | 111km/h | 10866m | 6.1m/s | -52.1°C | 0% | 243.0hPa | 0V | 00:00:00 | 00:00:00 | 00:00:00 | |
| KRY50SP | 2026-08-30 23:49:31 | 52.40435 | 21.40190 | 108° | 110km/h | 10840m | 4.1m/s | -52.0°C | 0% | 0hPa | 0V | 00:00:00 | 00:00:00 | 00:00:00 | |
| KRY50SP | 2026-08-30 23:49:24 | 52.40484 | 21.39939 | 109° | 102km/h | 10813m | 6.3m/s | -51.7°C | 0% | 0hPa | 0V | 00:00:00 | 00:00:00 | 00:00:00 | |
| KRY50SP | 2026-08-30 23:49:20 | 52.40528 | 21.39736 | 111° | 106km/h | 10787m | 6.4m/s | -51.5°C | 0% | 0hPa | 0V | 00:00:00 | 00:00:00 | 00:00:00 | |
| KRY50SP | 2026-08-30 23:49:08 | 52.40631 | 21.39284 | 109° | 102km/h | 10731m | 4.2m/s | -51.1°C | 0% | 0hPa | 0V | 00:00:00 | 00:00:00 | 00:00:00 | |
| SP4MAZ | 2026-08-30 23:49:04 | 52.40666 | 21.39118 | 111° | 108km/h | 10712m | 4.2m/s | 0°C | 0% | 248.7hPa | 0V | 00:00:00 | 00:00:00 | 00:00:00 | |
| KRY50SP | 2026-08-30 23:48:55 | 52.40744 | 21.38746 | 112° | 99km/h | 10670m | 4.3m/s | -50.5°C | 0% | 0hPa | 0V | 00:00:00 | 00:00:00 | 00:00:00 | |
| SP4MAZ | 2026-08-30 23:48:41 | 52.40869 | 21.38182 | 112° | 97km/h | 10603m | 5.1m/s | 0°C | 0% | 253.0hPa | 0V | 00:00:00 | 00:00:00 | 00:00:00 | |
| KRY50SP | 2026-08-30 23:48:38 | 52.40896 | 21.38067 | 110° | 99km/h | 10589m | 5.3m/s | -49.8°C | 0% | 0hPa | 0V | 00:00:00 | 00:00:00 | 00:00:00 | |
| KRY50SP | 2026-08-30 23:48:33 | 52.40950 | 21.37824 | 111° | 108km/h | 10560m | 6.3m/s | -49.6°C | 0% | 0hPa | 0V | 00:00:00 | 00:00:00 | 00:00:00 | |
| KRY50SP | 2026-08-30 23:48:24 | 52.41019 | 21.37512 | 109° | 93km/h | 10522m | 4.4m/s | -49.3°C | 0% | 0hPa | 0V | 00:00:00 | 00:00:00 | 00:00:00 | |
| SP4MAZ | 2026-08-30 23:48:20 | 52.41051 | 21.37359 | 112° | 100km/h | 10502m | 5.4m/s | 0°C | 0% | 257.0hPa | 0V | 00:00:00 | 00:00:00 | 00:00:00 | |
| KRY50SP | 2026-08-30 23:48:18 | 52.41071 | 21.37282 | 114° | 99km/h | 10493m | 5.6m/s | -49.2°C | 0% | 0hPa | 0V | 00:00:00 | 00:00:00 | 00:00:00 | |
| KRY50SP | 2026-08-30 23:48:12 | 52.41133 | 21.37055 | 114° | 97km/h | 10463m | 5.7m/s | -48.9°C | 0% | 0hPa | 0V | 00:00:00 | 00:00:00 | 00:00:00 | |
| KRY50SP | 2026-08-30 23:48:07 | 52.41174 | 21.36869 | 110° | 99km/h | 10436m | 4.8m/s | -48.7°C | 0% | 0hPa | 0V | 00:00:00 | 00:00:00 | 00:00:00 | |
| KRY50SP | 2026-08-30 23:48:01 | 52.41234 | 21.36652 | 113° | 86km/h | 10406m | 6.4m/s | -48.5°C | 0% | 0hPa | 0V | 00:00:00 | 00:00:00 | 00:00:00 | |
| SP4MAZ | 2026-08-30 23:47:56 | 52.41273 | 21.36469 | 112° | 97km/h | 10380m | 5.3m/s | 0°C | 0% | 261.7hPa | 0V | 00:00:00 | 00:00:00 | 00:00:00 | |
| KRY50SP | 2026-08-30 23:47:55 | 52.41282 | 21.36432 | 114° | 97km/h | 10376m | 3.8m/s | -48.2°C | 0% | 0hPa | 0V | 00:00:00 | 00:00:00 | 00:00:00 | |
| KRY50SP | 2026-08-30 23:47:50 | 52.41327 | 21.36245 | 113° | 99km/h | 10346m | 5.5m/s | -48.0°C | 0% | 0hPa | 0V | 00:00:00 | 00:00:00 | 00:00:00 | |
| KRY50SP | 2026-08-30 23:47:43 | 52.41391 | 21.35988 | 115° | 95km/h | 10312m | 5.3m/s | -47.7°C | 0% | 0hPa | 0V | 00:00:00 | 00:00:00 | 00:00:00 | |
| SP4MAZ | 2026-08-30 23:47:36 | 52.41454 | 21.35728 | 113° | 97km/h | 10278m | 4.9m/s | 0°C | 0% | 265.8hPa | 0V | 00:00:00 | 00:00:00 | 00:00:00 | |
| KRY50SP | 2026-08-30 23:47:32 | 52.41493 | 21.35582 | 117° | 97km/h | 10260m | 3.7m/s | -47.4°C | 0% | 0hPa | 0V | 00:00:00 | 00:00:00 | 00:00:00 | |
| KRY50SP | 2026-08-30 23:47:26 | 52.41550 | 21.35375 | 114° | 88km/h | 10232m | 4.9m/s | -47.2°C | 0% | 0hPa | 0V | 00:00:00 | 00:00:00 | 00:00:00 | |
| KRY50SP | 2026-08-30 23:47:14 | 52.41659 | 21.34950 | 115° | 88km/h | 10177m | 5.9m/s | -46.7°C | 0% | 0hPa | 0V | 00:00:00 | 00:00:00 | 00:00:00 | |
| KRY50SP | 2026-08-30 23:47:08 | 52.41716 | 21.34712 | 108° | 93km/h | 10145m | 4.7m/s | -46.5°C | 0% | 0hPa | 0V | 00:00:00 | 00:00:00 | 00:00:00 | |
| SP4MAZ | 2026-08-30 23:47:05 | 52.41730 | 21.34640 | 111° | 93km/h | 10136m | 3.9m/s | 0°C | 0% | 271.4hPa | 0V | 00:00:00 | 00:00:00 | 00:00:00 | |
| KRY50SP | 2026-08-30 23:47:02 | 52.41756 | 21.34531 | 107° | 88km/h | 10122m | 3.7m/s | -46.3°C | 0% | 0hPa | 0V | 00:00:00 | 00:00:00 | 00:00:00 | |
| KRY50SP | 2026-08-30 23:46:53 | 52.41831 | 21.34227 | 112° | 99km/h | 10082m | 4.1m/s | -45.9°C | 0% | 0hPa | 0V | 00:00:00 | 00:00:00 | 00:00:00 | |
| SP4MAZ | 2026-08-30 23:46:45 | 52.41891 | 21.33936 | 113° | 91km/h | 10040m | 5.8m/s | 0°C | 0% | 275.6hPa | 0V | 00:00:00 | 00:00:00 | 00:00:00 | |
| KRY50SP | 2026-08-30 23:46:37 | 52.41955 | 21.33643 | 107° | 86km/h | 9997m | 4.8m/s | -45.2°C | 0% | 0hPa | 0V | 00:00:00 | 00:00:00 | 00:00:00 | |
| KRY50SP | 2026-08-30 23:46:29 | 52.42002 | 21.33395 | 104° | 89km/h | 9965m | 6.0m/s | -45.0°C | 0% | 0hPa | 0V | 00:00:00 | 00:00:00 | 00:00:00 | |
| SP4MAZ | 2026-08-30 23:46:25 | 52.42033 | 21.33211 | 110° | 97km/h | 9940m | 5.4m/s | 0°C | 0% | 279.5hPa | 0V | 00:00:00 | 00:00:00 | 00:00:00 | |
| KRY50SP | 2026-08-30 23:46:24 | 52.42033 | 21.33211 | 110° | 97km/h | 9940m | 5.4m/s | -44.8°C | 0% | 0hPa | 0V | 00:00:00 | 00:00:00 | 00:00:00 | |
| KRY50SP | 2026-08-30 23:46:18 | 52.42074 | 21.32984 | 110° | 91km/h | 9911m | 4.9m/s | -44.6°C | 0% | 0hPa | 0V | 00:00:00 | 00:00:00 | 00:00:00 | |
| SP4MAZ | 2026-08-30 23:46:02 | 52.42174 | 21.32419 | 104° | 89km/h | 9834m | 4.6m/s | 0°C | 0% | 284.2hPa | 0V | 00:00:00 | 00:00:00 | 00:00:00 | |
| SP4MAZ | 2026-08-30 23:45:42 | 52.42301 | 21.31745 | 112° | 86km/h | 9728m | 6.0m/s | 0°C | 0% | 288.6hPa | 0V | 00:00:00 | 00:00:00 | 00:00:00 | |
| SP4MAZ | 2026-08-30 23:45:22 | 52.42429 | 21.31094 | 110° | 75km/h | 9634m | 5.4m/s | 0°C | 0% | 292.8hPa | 0V | 00:00:00 | 00:00:00 | 00:00:00 | |
| SP4MAZ | 2026-08-30 23:44:52 | 52.42609 | 21.30069 | 109° | 89km/h | 9474m | 4.6m/s | 0°C | 0% | 299.4hPa | 0V | 00:00:00 | 00:00:00 | 00:00:00 | |
| KRY50SP | 2026-08-30 23:44:47 | 52.42634 | 21.29931 | 106° | 80km/h | 9457m | 4.4m/s | -41.0°C | 0% | 0hPa | 0V | 00:00:00 | 00:00:00 | 00:00:00 | |
| SP4MAZ | 2026-08-30 23:44:31 | 52.42711 | 21.29390 | 110° | 77km/h | 9387m | 4.3m/s | 0°C | 0% | 303.5hPa | 0V | 00:00:00 | 00:00:00 | 00:00:00 | |
| KRY50SP | 2026-08-30 23:44:19 | 52.42776 | 21.29001 | 104° | 89km/h | 9326m | 6.8m/s | -40.1°C | 0% | 0hPa | 0V | 00:00:00 | 00:00:00 | 00:00:00 | |
| KRY50SP | 2026-08-30 23:44:14 | 52.42808 | 21.28789 | 100° | 88km/h | 9294m | 4.7m/s | -39.9°C | 0% | 0hPa | 0V | 00:00:00 | 00:00:00 | 00:00:00 | |
| SP4MAZ | 2026-08-30 23:44:11 | 52.42816 | 21.28718 | 100° | 84km/h | 9285m | 5.9m/s | 0°C | 0% | 308.1hPa | 0V | 00:00:00 | 00:00:00 | 00:00:00 | |
| KRY50SP | 2026-08-30 23:44:06 | 52.42833 | 21.28557 | 102° | 78km/h | 9261m | 5.7m/s | -39.6°C | 0% | 0hPa | 0V | 00:00:00 | 00:00:00 | 00:00:00 | |
| KRY50SP | 2026-08-30 23:44:00 | 52.42848 | 21.28347 | 95° | 84km/h | 9234m | 4.0m/s | -39.3°C | 0% | 0hPa | 0V | 00:00:00 | 00:00:00 | 00:00:00 | |
| KRY50SP | 2026-08-30 23:43:54 | 52.42875 | 21.28149 | 111° | 82km/h | 9205m | 5.6m/s | -39.0°C | 0% | 0hPa | 0V | 00:00:00 | 00:00:00 | 00:00:00 | |
| KRY50SP | 2026-08-30 23:43:49 | 52.42904 | 21.27979 | 101° | 84km/h | 9182m | 7.0m/s | 0°C | 0% | 0hPa | 0V | 00:00:00 | 00:00:00 | 00:00:00 | |
| KRY50SP | 2026-08-30 23:43:42 | 52.42930 | 21.27760 | 107° | 82km/h | 9147m | 5.2m/s | 0°C | 0% | 0hPa | 0V | 00:00:00 | 00:00:00 | 00:00:00 | |
| KRY50SP | 2026-08-30 23:43:37 | 52.42954 | 21.27562 | 107° | 71km/h | 9116m | 2.9m/s | 0°C | 0% | 0hPa | 0V | 00:00:00 | 00:00:00 | 00:00:00 | |
| KRY50SP | 2026-08-30 23:43:31 | 52.42980 | 21.27375 | 104° | 88km/h | 9085m | 7.0m/s | 0°C | 0% | 0hPa | 0V | 00:00:00 | 00:00:00 | 00:00:00 | |
| SP4MAZ | 2026-08-30 23:43:29 | 52.42985 | 21.27338 | 104° | 89km/h | 9081m | 4.6m/s | 0°C | 0% | 317.5hPa | 0V | 00:00:00 | 00:00:00 | 00:00:00 | |
| SP4MAZ | 2026-08-30 23:43:08 | 52.43081 | 21.26636 | 107° | 77km/h | 8955m | 5.8m/s | 0°C | 0% | 323.3hPa | 0V | 00:00:00 | 00:00:00 | 00:00:00 | |
| SP4MAZ | 2026-08-30 23:42:37 | 52.43159 | 21.25676 | 98° | 73km/h | 8801m | 4.2m/s | 0°C | 0% | 330.4hPa | 0V | 00:00:00 | 00:00:00 | 00:00:00 | |
| SP4MAZ | 2026-08-30 23:42:16 | 52.43211 | 21.25078 | 98° | 71km/h | 8700m | 6.8m/s | 0°C | 0% | 335.1hPa | 0V | 00:00:00 | 00:00:00 | 00:00:00 | |
| SP4MAZ | 2026-08-30 23:41:52 | 52.43253 | 21.24412 | 94° | 60km/h | 8558m | 4.6m/s | 0°C | 0% | 342.0hPa | 0V | 00:00:00 | 00:00:00 | 00:00:00 | |
| SP4MAZ | 2026-08-30 23:41:31 | 52.43283 | 21.23845 | 106° | 66km/h | 8441m | 6.7m/s | 0°C | 0% | 0hPa | 0V | 00:00:00 | 00:00:00 | 00:00:00 | |
| SP4MAZ | 2026-08-30 23:41:01 | 52.43334 | 21.23093 | 93° | 58km/h | 8267m | 4.3m/s | 0°C | 0% | 356.4hPa | 0V | 00:00:00 | 00:00:00 | 00:00:00 | |
| SP4MAZ | 2026-08-30 23:40:40 | 52.43384 | 21.22566 | 94° | 58km/h | 8145m | 6.4m/s | 0°C | 0% | 362.6hPa | 0V | 00:00:00 | 00:00:00 | 00:00:00 | |
| SP4MAZ | 2026-08-30 23:40:18 | 52.43446 | 21.22044 | 101° | 60km/h | 8033m | 6.2m/s | 0°C | 0% | 0hPa | 0V | 00:00:00 | 00:00:00 | 00:00:00 | |
| SP4MAZ | 2026-08-30 23:39:58 | 52.43468 | 21.21577 | 89° | 53km/h | 7920m | 5.8m/s | 0°C | 0% | 0hPa | 0V | 00:00:00 | 00:00:00 | 00:00:00 | |
| SP4MAZ | 2026-08-30 23:39:38 | 52.43484 | 21.21099 | 92° | 60km/h | 7810m | 4.6m/s | 0°C | 0% | 0hPa | 0V | 00:00:00 | 00:00:00 | 00:00:00 | |
| SP4MAZ | 2026-08-30 23:39:06 | 52.43462 | 21.20320 | 96° | 58km/h | 7647m | 7.5m/s | 0°C | 0% | 388.6hPa | 0V | 00:00:00 | 00:00:00 | 00:00:00 | |
| SP4MAZ | 2026-08-30 23:38:45 | 52.43484 | 21.19818 | 101° | 60km/h | 7542m | 3.2m/s | 0°C | 0% | 394.5hPa | 0V | 00:00:00 | 00:00:00 | 00:00:00 | |
| SP4MAZ | 2026-08-30 23:38:23 | 52.43502 | 21.19293 | 93° | 53km/h | 7424m | 7.5m/s | 0°C | 0% | 0hPa | 0V | 00:00:00 | 00:00:00 | 00:00:00 | |
| SP4MAZ | 2026-08-30 23:38:02 | 52.43520 | 21.18784 | 81° | 57km/h | 7294m | 6.0m/s | 0°C | 0% | 0hPa | 0V | 00:00:00 | 00:00:00 | 00:00:00 | |
| SP4MAZ | 2026-08-30 23:37:32 | 52.43503 | 21.18061 | 91° | 57km/h | 7137m | 7.0m/s | 0°C | 0% | 416.6hPa | 0V | 00:00:00 | 00:00:00 | 00:00:00 | |
| SP4MAZ | 2026-08-30 23:37:12 | 52.43493 | 21.17614 | 99° | 51km/h | 7033m | 4.5m/s | 0°C | 0% | 423.1hPa | 0V | 00:00:00 | 00:00:00 | 00:00:00 | |
| SP4MAZ | 2026-08-30 23:36:49 | 52.43485 | 21.17069 | 94° | 62km/h | 6893m | 5.1m/s | 0°C | 0% | 0hPa | 0V | 00:00:00 | 00:00:00 | 00:00:00 | |
| SP4MAZ | 2026-08-30 23:36:29 | 52.43480 | 21.16588 | 86° | 68km/h | 6810m | 7.4m/s | 0°C | 0% | 0hPa | 0V | 00:00:00 | 00:00:00 | 00:00:00 | |
| SP4MAZ | 2026-08-30 23:35:57 | 52.43452 | 21.15790 | 87° | 64km/h | 6628m | 6.4m/s | 0°C | 0% | 446.5hPa | 0V | 00:00:00 | 00:00:00 | 00:00:00 | |
| SP4MAZ | 2026-08-30 23:35:37 | 52.43441 | 21.15306 | 90° | 57km/h | 6510m | 6.4m/s | 0°C | 0% | 453.6hPa | 0V | 00:00:00 | 00:00:00 | 00:00:00 | |
| SP4MAZ | 2026-08-30 23:35:17 | 52.43412 | 21.14842 | 89° | 60km/h | 6411m | 6.5m/s | 0°C | 0% | 459.8hPa | 0V | 00:00:00 | 00:00:00 | 00:00:00 | |
| SP4MAZ | 2026-08-30 23:34:54 | 52.43385 | 21.14294 | 91° | 51km/h | 6278m | 7.3m/s | 0°C | 0% | 0hPa | 0V | 00:00:00 | 00:00:00 | 00:00:00 | |
| SP4MAZ | 2026-08-30 23:34:34 | 52.43344 | 21.13855 | 87° | 60km/h | 6156m | 4.2m/s | 0°C | 0% | 0hPa | 0V | 00:00:00 | 00:00:00 | 00:00:00 | |
| SP4MAZ | 2026-08-30 23:34:05 | 52.43286 | 21.13252 | 78° | 58km/h | 5998m | 7.8m/s | 0°C | 0% | 485.3hPa | 0V | 00:00:00 | 00:00:00 | 00:00:00 | |
| SP4MAZ | 2026-08-30 23:33:45 | 52.43260 | 21.12787 | 69° | 44km/h | 5896m | 6.1m/s | 0°C | 0% | 491.9hPa | 0V | 00:00:00 | 00:00:00 | 00:00:00 | |
| SP4MAZ | 2026-08-30 23:33:24 | 52.43214 | 21.12404 | 79° | 51km/h | 5783m | 4.1m/s | 0°C | 0% | 499.5hPa | 0V | 00:00:00 | 00:00:00 | 00:00:00 | |
| SP4MAZ | 2026-08-30 23:33:03 | 52.43186 | 21.11944 | 88° | 49km/h | 5660m | 6.3m/s | 0°C | 0% | 507.5hPa | 0V | 00:00:00 | 00:00:00 | 00:00:00 | |
| SP4MAZ | 2026-08-30 23:32:42 | 52.43145 | 21.11532 | 80° | 44km/h | 5545m | 5.3m/s | 0°C | 0% | 515.6hPa | 0V | 00:00:00 | 00:00:00 | 00:00:00 | |
| SP4MAZ | 2026-08-30 23:32:19 | 52.43095 | 21.11100 | 85° | 40km/h | 5414m | 8.9m/s | 0°C | 0% | 0hPa | 0V | 00:00:00 | 00:00:00 | 00:00:00 | |
| SP4MAZ | 2026-08-30 23:31:59 | 52.43061 | 21.10673 | 74° | 49km/h | 5285m | 7.8m/s | 0°C | 0% | 0hPa | 0V | 00:00:00 | 00:00:00 | 00:00:00 | |
| SP4MAZ | 2026-08-30 23:31:28 | 52.43000 | 21.10065 | 84° | 51km/h | 5096m | 6.2m/s | 0°C | 0% | 546.0hPa | 0V | 00:00:00 | 00:00:00 | 00:00:00 | |
| SP4MAZ | 2026-08-30 23:31:07 | 52.42977 | 21.09612 | 74° | 57km/h | 4983m | 6.5m/s | 0°C | 0% | 554.3hPa | 0V | 00:00:00 | 00:00:00 | 00:00:00 | |
| SP4MAZ | 2026-08-30 23:30:46 | 52.42936 | 21.09212 | 76° | 46km/h | 4861m | 5.6m/s | 0°C | 0% | 562.6hPa | 0V | 00:00:00 | 00:00:00 | 00:00:00 | |
| SP4MAZ | 2026-08-30 23:30:25 | 52.42881 | 21.08804 | 82° | 55km/h | 4759m | 5.3m/s | 0°C | 0% | 570.3hPa | 0V | 00:00:00 | 00:00:00 | 00:00:00 | |
| SP4MAZ | 2026-08-30 23:30:01 | 52.42829 | 21.08327 | 77° | 40km/h | 4630m | 3.8m/s | 0°C | 0% | 0hPa | 0V | 00:00:00 | 00:00:00 | 00:00:00 | |
| SP4MAZ | 2026-08-30 23:29:29 | 52.42757 | 21.07713 | 71° | 53km/h | 4460m | 6.5m/s | 0°C | 0% | 592.5hPa | 0V | 00:00:00 | 00:00:00 | 00:00:00 | |
| SP4MAZ | 2026-08-30 23:28:33 | 52.42614 | 21.06585 | 72° | 40km/h | 4163m | 6.2m/s | 0°C | 0% | 0hPa | 0V | 00:00:00 | 00:00:00 | 00:00:00 | |
| SP4MAZ | 2026-08-30 23:28:12 | 52.42595 | 21.06199 | 85° | 55km/h | 4064m | 3.2m/s | 0°C | 0% | 0hPa | 0V | 00:00:00 | 00:00:00 | 00:00:00 | |
| SP4MAZ | 2026-08-30 23:27:38 | 52.42534 | 21.05502 | 74° | 51km/h | 3894m | 5.8m/s | 0°C | 0% | 0hPa | 0V | 00:00:00 | 00:00:00 | 00:00:00 | |
| SP4MAZ | 2026-08-30 23:27:13 | 52.42500 | 21.05009 | 73° | 55km/h | 3767m | 5.3m/s | 0°C | 0% | 0hPa | 0V | 00:00:00 | 00:00:00 | 00:00:00 | |
| SP4MAZ | 2026-08-30 23:26:37 | 52.42397 | 21.04292 | 84° | 37km/h | 3586m | 7.3m/s | 0°C | 0% | 0hPa | 0V | 00:00:00 | 00:00:00 | 00:00:00 | |
| SP4MAZ | 2026-08-30 23:26:15 | 52.42337 | 21.03943 | 88° | 33km/h | 3472m | 6.0m/s | 0°C | 0% | 0hPa | 0V | 00:00:00 | 00:00:00 | 00:00:00 |